Darstellungsparameter: Aktuell verwendete Einstellungen:
Skalierung der Graphiken ... ?
xyx+y,   Skalierungsfaktor:      Skalierung: Modus: x, Faktor: 1
Darstellungszeitraum ... ?
Vom - - bis: - -   Zeitraum: 07.07.2020 - 11.07.2020
Min/Max/Avg-Anzeige ... ?
Zeige MMA aktuell
Zeige MMA Monat
Zeige MMA alles
Zeige --A aktuell
Zeige --A Monat
Zeige --A alles
Keine MMA-Anzeige
MMA:
Average (ber die Originaldaten)
MMA-Basis: 07.07.2020 - 11.07.2020
Quicknavigation für Darstellung... ?
Tage:      1T, 2T, 3T, 5T -1T -2T -3T -5T +1T +2T +3T +5T
Wochen: 1W, 2W, 3W -1W -2W -3W +1W +2W +3W
Monate: 1M, 3M, 6M -1M -3M -6M +1M +3M +6M
Jahre:    1J, 3J, 5J, 10J -1J -3J -5J -10J +1J +3J +5J +10J
Nutze für die Darstellung ... ?
Originaldaten oder Mittelwerte auf ...
Stundenbasis Tagesbasis Wochenbasis
Monatsbasis Jahresbasis      Datenbasis: Original-Daten
Darstellen als:
Statistik (Auto) Statistik J:M      Darstellung:
Zur Graphik,    zurück zur Übersicht aller Sensoren.
 
Tabellarische Datenbersicht: ?
 
Sensor: Nr:Datum:Temp:Abs-Feuchte:Windchill:Wind:
Aussen-T/F 1 07-07-2020 00:00:00 12.6 C 8.96 g/m*3 12.6 C 0 km/h
2 07-07-2020 00:05:00 12.4 C 8.85 g/m*3 12.4 C 1.6 km/h
3 07-07-2020 00:10:00 12.3 C 8.9 g/m*3 12.3 C 0 km/h
4 07-07-2020 00:15:00 12.2 C 8.96 g/m*3 12.2 C 0 km/h
5 07-07-2020 00:20:00 12.1 C 8.9 g/m*3 12.1 C 4.8 km/h
6 07-07-2020 00:25:00 12 C 8.85 g/m*3 12 C 4.8 km/h
7 07-07-2020 00:30:00 11.9 C 8.9 g/m*3 11.9 C 0 km/h
8 07-07-2020 00:35:00 11.8 C 8.84 g/m*3 11.8 C 0 km/h
9 07-07-2020 00:40:00 11.7 C 8.79 g/m*3 11.7 C 1.6 km/h
10 07-07-2020 00:45:00 11.6 C 8.83 g/m*3 11.6 C 4.8 km/h
11 07-07-2020 00:50:00 11.5 C 8.78 g/m*3 11.5 C 0 km/h
12 07-07-2020 00:55:00 11.4 C 8.83 g/m*3 11.4 C 0 km/h
13 07-07-2020 01:00:00 11.3 C 8.77 g/m*3 11.3 C 3.2 km/h
14 07-07-2020 01:05:00 11.3 C 8.77 g/m*3 11.3 C 0 km/h
15 07-07-2020 01:10:00 11.2 C 8.72 g/m*3 11.2 C 0 km/h
16 07-07-2020 01:15:00 11.1 C 8.66 g/m*3 11.1 C 0 km/h
17 07-07-2020 01:20:00 11.1 C 8.76 g/m*3 11.1 C 4.8 km/h
18 07-07-2020 01:25:00 11.1 C 8.76 g/m*3 11.1 C 1.6 km/h
19 07-07-2020 01:30:00 11.1 C 8.76 g/m*3 11.1 C 0 km/h
20 07-07-2020 01:35:00 11 C 8.71 g/m*3 11 C 1.6 km/h
21 07-07-2020 01:40:00 10.9 C 8.65 g/m*3 10.9 C 0 km/h
22 07-07-2020 01:45:00 10.9 C 8.75 g/m*3 10.9 C 0 km/h
23 07-07-2020 01:50:00 10.9 C 8.75 g/m*3 10.9 C 0 km/h
24 07-07-2020 01:55:00 10.8 C 8.7 g/m*3 10.8 C 0 km/h
25 07-07-2020 02:00:00 10.8 C 8.7 g/m*3 10.8 C 1.6 km/h
Sensor: Nr:Datum:Temp:Abs-Feuchte:Windchill:Wind:
Aussen-T/F 26 07-07-2020 02:05:00 10.7 C 8.64 g/m*3 10.7 C 0 km/h
27 07-07-2020 02:10:00 10.7 C 8.74 g/m*3 10.7 C 1.6 km/h
28 07-07-2020 02:15:00 10.6 C 8.69 g/m*3 10.6 C 0 km/h
29 07-07-2020 02:20:00 10.5 C 8.63 g/m*3 10.5 C 0 km/h
30 07-07-2020 02:25:00 10.4 C 8.58 g/m*3 10.4 C 1.6 km/h
31 07-07-2020 02:30:00 10.3 C 8.52 g/m*3 10.3 C 0 km/h
32 07-07-2020 02:35:00 10.3 C 8.52 g/m*3 10.3 C 3.2 km/h
33 07-07-2020 02:40:00 10.2 C 8.56 g/m*3 10.2 C 1.6 km/h
34 07-07-2020 02:45:00 10.2 C 8.56 g/m*3 10.2 C 0 km/h
35 07-07-2020 02:50:00 10.2 C 8.56 g/m*3 10.2 C 3.2 km/h
36 07-07-2020 02:55:00 10.2 C 8.66 g/m*3 10.2 C 4.8 km/h
37 07-07-2020 03:00:00 10.3 C 8.71 g/m*3 10.3 C 0 km/h
38 07-07-2020 03:05:00 10.3 C 8.71 g/m*3 10.3 C 3.2 km/h
39 07-07-2020 03:10:00 10.3 C 8.71 g/m*3 10.3 C 0 km/h
40 07-07-2020 03:15:00 10.2 C 8.66 g/m*3 10.2 C 0 km/h
41 07-07-2020 03:20:00 10.1 C 8.61 g/m*3 10.1 C 1.6 km/h
42 07-07-2020 03:25:00 10.1 C 8.61 g/m*3 10.1 C 1.6 km/h
43 07-07-2020 03:30:00 9.9 C 8.5 g/m*3 9.9 C 3.2 km/h
44 07-07-2020 03:35:00 9.9 C 8.5 g/m*3 9.9 C 1.6 km/h
45 07-07-2020 03:40:00 9.8 C 8.44 g/m*3 9.8 C 1.6 km/h
46 07-07-2020 03:45:00 9.8 C 8.44 g/m*3 9.8 C 1.6 km/h
47 07-07-2020 03:50:00 9.8 C 8.54 g/m*3 9.8 C 0 km/h
48 07-07-2020 03:55:00 9.8 C 8.54 g/m*3 9.8 C 1.6 km/h
49 07-07-2020 04:00:00 9.8 C 8.54 g/m*3 9.8 C 3.2 km/h
50 07-07-2020 04:05:00 9.8 C 8.54 g/m*3 9.8 C 1.6 km/h
Sensor: Nr:Datum:Temp:Abs-Feuchte:Windchill:Wind:
Aussen-T/F 51 07-07-2020 04:10:00 9.8 C 8.54 g/m*3 9.8 C 1.6 km/h
52 07-07-2020 04:15:00 9.8 C 8.54 g/m*3 9.8 C 0 km/h
53 07-07-2020 04:20:00 9.7 C 8.48 g/m*3 9.7 C 3.2 km/h
54 07-07-2020 04:25:00 9.7 C 8.48 g/m*3 9.7 C 1.6 km/h
55 07-07-2020 04:30:00 9.6 C 8.43 g/m*3 9.6 C 0 km/h
56 07-07-2020 04:35:00 9.5 C 8.37 g/m*3 9.5 C 1.6 km/h
57 07-07-2020 04:40:00 9.4 C 8.32 g/m*3 9.4 C 0 km/h
58 07-07-2020 04:45:00 9.3 C 8.27 g/m*3 9.3 C 1.6 km/h
59 07-07-2020 04:50:00 9.3 C 8.27 g/m*3 9.3 C 1.6 km/h
60 07-07-2020 04:55:00 9.2 C 8.22 g/m*3 9.2 C 0 km/h
61 07-07-2020 05:00:00 9.2 C 8.22 g/m*3 9.2 C 0 km/h
62 07-07-2020 05:05:00 9.1 C 8.16 g/m*3 9.1 C 3.2 km/h
63 07-07-2020 05:10:00 9.1 C 8.16 g/m*3 9.1 C 3.2 km/h
64 07-07-2020 05:15:00 9 C 8.11 g/m*3 9 C 1.6 km/h
65 07-07-2020 05:20:00 8.9 C 8.06 g/m*3 8.9 C 0 km/h
66 07-07-2020 05:25:00 8.8 C 8.01 g/m*3 8.8 C 0 km/h
67 07-07-2020 05:30:00 8.8 C 8.09 g/m*3 8.8 C 4.8 km/h
68 07-07-2020 05:35:00 8.8 C 8.09 g/m*3 8.8 C 3.2 km/h
69 07-07-2020 05:40:00 8.8 C 8.09 g/m*3 8.8 C 1.6 km/h
70 07-07-2020 05:45:00 8.8 C 8.09 g/m*3 8.8 C 1.6 km/h
71 07-07-2020 05:50:00 8.7 C 8.04 g/m*3 8.7 C 0 km/h
72 07-07-2020 05:55:00 8.7 C 8.04 g/m*3 8.7 C 0 km/h
73 07-07-2020 06:00:00 8.7 C 8.04 g/m*3 8.7 C 0 km/h
74 07-07-2020 06:05:00 8.6 C 7.99 g/m*3 8.6 C 0 km/h
75 07-07-2020 06:10:00 8.6 C 7.99 g/m*3 8.6 C 4.8 km/h
Sensor: Nr:Datum:Temp:Abs-Feuchte:Windchill:Wind:
Aussen-T/F 76 07-07-2020 06:15:00 8.6 C 7.99 g/m*3 8.6 C 0 km/h
77 07-07-2020 06:20:00 8.5 C 7.94 g/m*3 8.5 C 0 km/h
78 07-07-2020 06:25:00 8.5 C 7.94 g/m*3 8.5 C 1.6 km/h
79 07-07-2020 06:30:00 8.6 C 7.99 g/m*3 8.6 C 1.6 km/h
80 07-07-2020 06:35:00 8.6 C 7.99 g/m*3 8.6 C 0 km/h
81 07-07-2020 06:40:00 8.6 C 8.08 g/m*3 8.6 C 1.6 km/h
82 07-07-2020 06:45:00 8.7 C 8.13 g/m*3 8.7 C 1.6 km/h
83 07-07-2020 06:50:00 8.7 C 8.13 g/m*3 8.7 C 0 km/h
84 07-07-2020 06:55:00 8.7 C 8.13 g/m*3 8.7 C 1.6 km/h
85 07-07-2020 07:00:00 8.7 C 8.13 g/m*3 8.7 C 3.2 km/h
86 07-07-2020 07:05:00 8.8 C 8.18 g/m*3 8.8 C 4.8 km/h
87 07-07-2020 07:10:00 9 C 8.29 g/m*3 9 C 3.2 km/h
88 07-07-2020 07:15:00 9.1 C 8.34 g/m*3 9.1 C 4.8 km/h
89 07-07-2020 07:20:00 9.2 C 8.39 g/m*3 8.45 C 6.4 km/h
90 07-07-2020 07:25:00 9.3 C 8.45 g/m*3 8.56 C 6.4 km/h
91 07-07-2020 07:30:00 9.4 C 8.5 g/m*3 9.4 C 4.8 km/h
92 07-07-2020 07:35:00 9.6 C 8.61 g/m*3 9.6 C 4.8 km/h
93 07-07-2020 07:40:00 9.7 C 8.57 g/m*3 9.7 C 4.8 km/h
94 07-07-2020 07:45:00 9.8 C 8.63 g/m*3 9.14 C 6.4 km/h
95 07-07-2020 07:50:00 9.8 C 8.63 g/m*3 9.8 C 0 km/h
96 07-07-2020 07:55:00 9.9 C 8.68 g/m*3 9.9 C 1.6 km/h
97 07-07-2020 08:00:00 10 C 8.74 g/m*3 10 C 1.6 km/h
98 07-07-2020 08:05:00 10 C 8.74 g/m*3 10 C 1.6 km/h
99 07-07-2020 08:10:00 10.1 C 8.79 g/m*3 10.1 C 1.6 km/h
100 07-07-2020 08:15:00 10.1 C 8.79 g/m*3 10.1 C 1.6 km/h
Sensor: Nr:Datum:Temp:Abs-Feuchte:Windchill:Wind:
Aussen-T/F 101 07-07-2020 08:20:00 10.2 C 8.85 g/m*3 10.2 C 3.2 km/h
102 07-07-2020 08:25:00 10.3 C 8.91 g/m*3 10.3 C 1.6 km/h
103 07-07-2020 08:30:00 10.5 C 9.02 g/m*3 10.5 C 3.2 km/h
104 07-07-2020 08:35:00 10.7 C 9.13 g/m*3 10.7 C 1.6 km/h
105 07-07-2020 08:40:00 10.8 C 9.19 g/m*3 10.8 C 1.6 km/h
106 07-07-2020 08:45:00 10.9 C 9.25 g/m*3 10.9 C 0 km/h
107 07-07-2020 08:50:00 11 C 9.31 g/m*3 11 C 0 km/h
108 07-07-2020 08:55:00 11.1 C 9.37 g/m*3 11.1 C 0 km/h
109 07-07-2020 09:00:00 11.3 C 9.49 g/m*3 11.3 C 0 km/h
110 07-07-2020 09:05:00 11.4 C 9.55 g/m*3 11.4 C 0 km/h
111 07-07-2020 09:10:00 11.6 C 9.67 g/m*3 11.6 C 0 km/h
112 07-07-2020 09:15:00 11.7 C 9.73 g/m*3 11.7 C 0 km/h
113 07-07-2020 09:20:00 11.9 C 9.85 g/m*3 11.9 C 0 km/h
114 07-07-2020 09:25:00 12.2 C 10.04 g/m*3 12.2 C 0 km/h
115 07-07-2020 09:30:00 12.4 C 10.16 g/m*3 12.4 C 0 km/h
116 07-07-2020 09:35:00 12.7 C 10.13 g/m*3 12.7 C 3.2 km/h
117 07-07-2020 09:40:00 12.9 C 10.03 g/m*3 12.9 C 1.6 km/h
118 07-07-2020 09:45:00 13.3 C 10.17 g/m*3 13.3 C 1.6 km/h
119 07-07-2020 09:50:00 13.6 C 10.12 g/m*3 13.6 C 0 km/h
120 07-07-2020 09:55:00 13.8 C 10.13 g/m*3 13.8 C 3.2 km/h
121 07-07-2020 10:00:00 13.9 C 10.07 g/m*3 13.9 C 0 km/h
122 07-07-2020 10:05:00 14.1 C 9.71 g/m*3 14.1 C 3.2 km/h
123 07-07-2020 10:10:00 14.4 C 9.52 g/m*3 14.4 C 3.2 km/h
124 07-07-2020 10:15:00 14.8 C 9.63 g/m*3 14.8 C 3.2 km/h
125 07-07-2020 10:20:00 15.2 C 9.48 g/m*3 15.2 C 4.8 km/h
Sensor: Nr:Datum:Temp:Abs-Feuchte:Windchill:Wind:
Aussen-T/F 126 07-07-2020 10:25:00 15.7 C 9.5 g/m*3 15.7 C 6.4 km/h
127 07-07-2020 10:30:00 16.2 C 9.79 g/m*3 16.2 C 4.8 km/h
128 07-07-2020 10:35:00 16.6 C 9.61 g/m*3 16.6 C 4.8 km/h
129 07-07-2020 10:40:00 17 C 9.69 g/m*3 17 C 3.2 km/h
130 07-07-2020 10:45:00 17.3 C 9.58 g/m*3 17.3 C 4.8 km/h
131 07-07-2020 10:50:00 17.6 C 9.45 g/m*3 17.6 C 6.4 km/h
132 07-07-2020 10:55:00 17.7 C 9.35 g/m*3 17.7 C 0 km/h
133 07-07-2020 11:00:00 17.7 C 9.2 g/m*3 17.7 C 3.2 km/h
134 07-07-2020 11:05:00 17.8 C 8.8 g/m*3 17.8 C 6.4 km/h
135 07-07-2020 11:10:00 17.9 C 9.01 g/m*3 17.9 C 3.2 km/h
136 07-07-2020 11:15:00 18.1 C 9.43 g/m*3 18.1 C 0 km/h
137 07-07-2020 11:20:00 18.2 C 9.01 g/m*3 18.2 C 8.1 km/h
138 07-07-2020 11:25:00 18.4 C 8.34 g/m*3 18.4 C 8.1 km/h
139 07-07-2020 11:30:00 18.4 C 8.34 g/m*3 18.4 C 8.1 km/h
140 07-07-2020 11:35:00 18.4 C 8.18 g/m*3 18.4 C 6.4 km/h
141 07-07-2020 11:40:00 18.4 C 8.18 g/m*3 18.4 C 1.6 km/h
142 07-07-2020 11:45:00 18.6 C 8.28 g/m*3 18.6 C 9.7 km/h
143 07-07-2020 11:50:00 18.6 C 7.96 g/m*3 18.6 C 9.7 km/h
144 07-07-2020 11:55:00 18.8 C 8.05 g/m*3 18.8 C 6.4 km/h
145 07-07-2020 12:00:00 19.2 C 7.91 g/m*3 19.2 C 3.2 km/h
146 07-07-2020 12:05:00 19.5 C 7.72 g/m*3 19.5 C 9.7 km/h
147 07-07-2020 12:10:00 19.6 C 8.1 g/m*3 19.6 C 3.2 km/h
148 07-07-2020 12:15:00 19.6 C 8.1 g/m*3 19.6 C 9.7 km/h
149 07-07-2020 12:20:00 19.4 C 8.01 g/m*3 19.4 C 4.8 km/h
150 07-07-2020 12:25:00 19.4 C 8.18 g/m*3 19.4 C 4.8 km/h
Sensor: Nr:Datum:Temp:Abs-Feuchte:Windchill:Wind:
Aussen-T/F 151 07-07-2020 12:30:00 19.7 C 8.15 g/m*3 19.7 C 8.1 km/h
152 07-07-2020 12:35:00 20 C 8.3 g/m*3 20 C 8.1 km/h
153 07-07-2020 12:40:00 20 C 8.47 g/m*3 20 C 12.9 km/h
154 07-07-2020 12:45:00 19.9 C 8.08 g/m*3 19.9 C 12.9 km/h
155 07-07-2020 12:50:00 19.8 C 8.2 g/m*3 19.8 C 11.3 km/h
156 07-07-2020 12:55:00 19.8 C 8.37 g/m*3 19.8 C 4.8 km/h
157 07-07-2020 13:00:00 19.8 C 7.69 g/m*3 19.8 C 11.3 km/h
158 07-07-2020 13:05:00 19.8 C 8.03 g/m*3 19.8 C 6.4 km/h
159 07-07-2020 13:10:00 19.7 C 7.98 g/m*3 19.7 C 4.8 km/h
160 07-07-2020 13:15:00 19.6 C 8.1 g/m*3 19.6 C 6.4 km/h
161 07-07-2020 13:20:00 19.6 C 8.27 g/m*3 19.6 C 9.7 km/h
162 07-07-2020 13:25:00 19.6 C 7.93 g/m*3 19.6 C 0 km/h
163 07-07-2020 13:30:00 19.8 C 8.03 g/m*3 19.8 C 0 km/h
164 07-07-2020 13:35:00 19.9 C 7.73 g/m*3 19.9 C 0 km/h
165 07-07-2020 13:40:00 20.2 C 8.04 g/m*3 20.2 C 0 km/h
166 07-07-2020 13:45:00 20.3 C 8.09 g/m*3 20.3 C 9.7 km/h
167 07-07-2020 13:50:00 20.4 C 7.96 g/m*3 20.4 C 8.1 km/h
168 07-07-2020 13:55:00 20.3 C 7.91 g/m*3 20.3 C 16.1 km/h
169 07-07-2020 14:00:00 20.2 C 8.04 g/m*3 20.2 C 9.7 km/h
170 07-07-2020 14:05:00 20.2 C 8.22 g/m*3 20.2 C 8.1 km/h
171 07-07-2020 14:10:00 20.2 C 8.39 g/m*3 20.2 C 6.4 km/h
172 07-07-2020 14:15:00 20.2 C 8.39 g/m*3 20.2 C 6.4 km/h
173 07-07-2020 14:20:00 20.3 C 8.44 g/m*3 20.3 C 4.8 km/h
174 07-07-2020 14:25:00 20.4 C 8.31 g/m*3 20.4 C 9.7 km/h
175 07-07-2020 14:30:00 20.6 C 8.41 g/m*3 20.6 C 8.1 km/h
Sensor: Nr:Datum:Temp:Abs-Feuchte:Windchill:Wind:
Aussen-T/F 176 07-07-2020 14:35:00 20.6 C 8.59 g/m*3 20.6 C 1.6 km/h
177 07-07-2020 14:40:00 20.6 C 8.77 g/m*3 20.6 C 6.4 km/h
178 07-07-2020 14:45:00 20.6 C 8.23 g/m*3 20.6 C 11.3 km/h
179 07-07-2020 14:50:00 20.9 C 8.56 g/m*3 20.9 C 4.8 km/h
180 07-07-2020 14:55:00 21.3 C 8.76 g/m*3 21.3 C 14.5 km/h
181 07-07-2020 15:00:00 21.6 C 8.72 g/m*3 21.6 C 11.3 km/h
182 07-07-2020 15:05:00 21.6 C 8.53 g/m*3 21.6 C 11.3 km/h
183 07-07-2020 15:10:00 21.7 C 8.97 g/m*3 21.7 C 11.3 km/h
184 07-07-2020 15:15:00 21.6 C 8.53 g/m*3 21.6 C 12.9 km/h
185 07-07-2020 15:20:00 21.6 C 8.53 g/m*3 21.6 C 4.8 km/h
186 07-07-2020 15:25:00 21.6 C 8.53 g/m*3 21.6 C 11.3 km/h
187 07-07-2020 15:30:00 21.9 C 9.07 g/m*3 21.9 C 11.3 km/h
188 07-07-2020 15:35:00 22.1 C 8.78 g/m*3 22.1 C 11.3 km/h
189 07-07-2020 15:40:00 22.2 C 8.83 g/m*3 22.2 C 11.3 km/h
190 07-07-2020 15:45:00 22.3 C 8.89 g/m*3 22.3 C 8.1 km/h
191 07-07-2020 15:50:00 22.2 C 8.64 g/m*3 22.2 C 12.9 km/h
192 07-07-2020 15:55:00 22.1 C 9.17 g/m*3 22.1 C 14.5 km/h
193 07-07-2020 16:00:00 22.6 C 9.04 g/m*3 22.6 C 11.3 km/h
194 07-07-2020 16:05:00 22.8 C 8.74 g/m*3 22.8 C 8.1 km/h
195 07-07-2020 16:10:00 23.1 C 9.1 g/m*3 23.1 C 12.9 km/h
196 07-07-2020 16:15:00 23.3 C 8.78 g/m*3 23.3 C 11.3 km/h
197 07-07-2020 16:20:00 23.6 C 8.51 g/m*3 23.6 C 8.1 km/h
198 07-07-2020 16:25:00 23.5 C 8.67 g/m*3 23.5 C 8.1 km/h
199 07-07-2020 16:30:00 23.5 C 9.09 g/m*3 23.5 C 9.7 km/h
200 07-07-2020 16:35:00 23.4 C 8.62 g/m*3 23.4 C 9.7 km/h
Sensor: Nr:Datum:Temp:Abs-Feuchte:Windchill:Wind:
Aussen-T/F 201 07-07-2020 16:40:00 23.2 C 8.32 g/m*3 23.2 C 8.1 km/h
202 07-07-2020 16:45:00 23.4 C 8.83 g/m*3 23.4 C 11.3 km/h
203 07-07-2020 16:50:00 23.9 C 8.87 g/m*3 23.9 C 19.3 km/h
204 07-07-2020 16:55:00 24.1 C 8.97 g/m*3 24.1 C 16.1 km/h
205 07-07-2020 17:00:00 24 C 8.7 g/m*3 24 C 16.1 km/h
206 07-07-2020 17:05:00 23.8 C 8.82 g/m*3 23.8 C 6.4 km/h
207 07-07-2020 17:10:00 23.5 C 8.67 g/m*3 23.5 C 11.3 km/h
208 07-07-2020 17:15:00 23.2 C 8.52 g/m*3 23.2 C 12.9 km/h
209 07-07-2020 17:20:00 22.8 C 8.53 g/m*3 22.8 C 9.7 km/h
210 07-07-2020 17:25:00 22.5 C 8.59 g/m*3 22.5 C 6.4 km/h
211 07-07-2020 17:30:00 22.3 C 8.69 g/m*3 22.3 C 11.3 km/h
212 07-07-2020 17:35:00 22.2 C 8.64 g/m*3 22.2 C 11.3 km/h
213 07-07-2020 17:40:00 22.1 C 8.39 g/m*3 22.1 C 12.9 km/h
214 07-07-2020 17:45:00 22.1 C 8.78 g/m*3 22.1 C 3.2 km/h
215 07-07-2020 17:50:00 22.3 C 8.49 g/m*3 22.3 C 9.7 km/h
216 07-07-2020 17:55:00 22.4 C 8.74 g/m*3 22.4 C 11.3 km/h
217 07-07-2020 18:00:00 22.6 C 8.84 g/m*3 22.6 C 11.3 km/h
218 07-07-2020 18:05:00 23.2 C 8.94 g/m*3 23.2 C 9.7 km/h
219 07-07-2020 18:10:00 24.1 C 8.97 g/m*3 24.1 C 6.4 km/h
220 07-07-2020 18:15:00 24.4 C 9.12 g/m*3 24.4 C 9.7 km/h
221 07-07-2020 18:20:00 24.3 C 8.85 g/m*3 24.3 C 11.3 km/h
222 07-07-2020 18:25:00 24.3 C 8.63 g/m*3 24.3 C 6.4 km/h
223 07-07-2020 18:30:00 24.1 C 8.53 g/m*3 24.1 C 8.1 km/h
224 07-07-2020 18:35:00 23.7 C 8.77 g/m*3 23.7 C 8.1 km/h
225 07-07-2020 18:40:00 23.9 C 8.65 g/m*3 23.9 C 6.4 km/h
Sensor: Nr:Datum:Temp:Abs-Feuchte:Windchill:Wind:
Aussen-T/F 226 07-07-2020 18:45:00 24.2 C 8.58 g/m*3 24.2 C 11.3 km/h
227 07-07-2020 18:50:00 23.7 C 8.13 g/m*3 23.7 C 9.7 km/h
228 07-07-2020 18:55:00 23.1 C 8.48 g/m*3 23.1 C 9.7 km/h
229 07-07-2020 19:00:00 22.7 C 8.49 g/m*3 22.7 C 9.7 km/h
230 07-07-2020 19:05:00 22.7 C 8.49 g/m*3 22.7 C 11.3 km/h
231 07-07-2020 19:10:00 22.4 C 8.54 g/m*3 22.4 C 6.4 km/h
232 07-07-2020 19:15:00 22.2 C 8.64 g/m*3 22.2 C 9.7 km/h
233 07-07-2020 19:20:00 22.2 C 8.64 g/m*3 22.2 C 6.4 km/h
234 07-07-2020 19:25:00 22.2 C 8.44 g/m*3 22.2 C 8.1 km/h
235 07-07-2020 19:30:00 22.1 C 8.98 g/m*3 22.1 C 6.4 km/h
236 07-07-2020 19:35:00 21.9 C 8.3 g/m*3 21.9 C 8.1 km/h
237 07-07-2020 19:40:00 21.8 C 8.44 g/m*3 21.8 C 8.1 km/h
238 07-07-2020 19:45:00 21.7 C 8.58 g/m*3 21.7 C 9.7 km/h
239 07-07-2020 19:50:00 21.6 C 8.53 g/m*3 21.6 C 4.8 km/h
240 07-07-2020 19:55:00 21.5 C 8.3 g/m*3 21.5 C 8.1 km/h
241 07-07-2020 20:00:00 21.5 C 8.3 g/m*3 21.5 C 6.4 km/h
242 07-07-2020 20:05:00 21.5 C 8.49 g/m*3 21.5 C 4.8 km/h
243 07-07-2020 20:10:00 21.4 C 8.25 g/m*3 21.4 C 16.1 km/h
244 07-07-2020 20:15:00 21.3 C 8.57 g/m*3 21.3 C 6.4 km/h
245 07-07-2020 20:20:00 21.3 C 8.76 g/m*3 21.3 C 6.4 km/h
246 07-07-2020 20:25:00 21.2 C 8.9 g/m*3 21.2 C 0 km/h
247 07-07-2020 20:30:00 21.1 C 9.03 g/m*3 21.1 C 4.8 km/h
248 07-07-2020 20:35:00 21 C 8.98 g/m*3 21 C 1.6 km/h
249 07-07-2020 20:40:00 20.8 C 9.05 g/m*3 20.8 C 0 km/h
250 07-07-2020 20:45:00 20.8 C 9.23 g/m*3 20.8 C 1.6 km/h
Sensor: Nr:Datum:Temp:Abs-Feuchte:Windchill:Wind:
Aussen-T/F 251 07-07-2020 20:50:00 20.7 C 9.9 g/m*3 20.7 C 0 km/h
252 07-07-2020 20:55:00 20.6 C 9.66 g/m*3 20.6 C 0 km/h
253 07-07-2020 21:00:00 20.4 C 9.02 g/m*3 20.4 C 4.8 km/h
254 07-07-2020 21:05:00 20.3 C 9.32 g/m*3 20.3 C 0 km/h
255 07-07-2020 21:10:00 20.2 C 9.79 g/m*3 20.2 C 0 km/h
256 07-07-2020 21:15:00 20.1 C 9.39 g/m*3 20.1 C 3.2 km/h
257 07-07-2020 21:20:00 20 C 9.33 g/m*3 20 C 4.8 km/h
258 07-07-2020 21:25:00 19.9 C 9.97 g/m*3 19.9 C 0 km/h
259 07-07-2020 21:30:00 19.8 C 9.39 g/m*3 19.8 C 0 km/h
260 07-07-2020 21:35:00 19.8 C 9.91 g/m*3 19.8 C 0 km/h
261 07-07-2020 21:40:00 19.6 C 9.79 g/m*3 19.6 C 0 km/h
262 07-07-2020 21:45:00 19.3 C 9.95 g/m*3 19.3 C 0 km/h
263 07-07-2020 21:50:00 19.1 C 10 g/m*3 19.1 C 0 km/h
264 07-07-2020 21:55:00 18.7 C 9.77 g/m*3 18.7 C 0 km/h
265 07-07-2020 22:00:00 18.3 C 9.69 g/m*3 18.3 C 0 km/h
266 07-07-2020 22:05:00 18.1 C 9.73 g/m*3 18.1 C 4.8 km/h
267 07-07-2020 22:10:00 17.8 C 9.56 g/m*3 17.8 C 4.8 km/h
268 07-07-2020 22:15:00 17.7 C 9.66 g/m*3 17.7 C 0 km/h
269 07-07-2020 22:20:00 17.7 C 9.66 g/m*3 17.7 C 1.6 km/h
270 07-07-2020 22:25:00 17.6 C 9.6 g/m*3 17.6 C 4.8 km/h
271 07-07-2020 22:30:00 17.5 C 9.69 g/m*3 17.5 C 4.8 km/h
272 07-07-2020 22:35:00 17.4 C 9.63 g/m*3 17.4 C 6.4 km/h
273 07-07-2020 22:40:00 17.3 C 9.58 g/m*3 17.3 C 3.2 km/h
274 07-07-2020 22:45:00 17.3 C 9.58 g/m*3 17.3 C 4.8 km/h
275 07-07-2020 22:50:00 17.3 C 9.72 g/m*3 17.3 C 1.6 km/h
Sensor: Nr:Datum:Temp:Abs-Feuchte:Windchill:Wind:
Aussen-T/F 276 07-07-2020 22:55:00 17.2 C 9.67 g/m*3 17.2 C 0 km/h
277 07-07-2020 23:00:00 17.2 C 9.67 g/m*3 17.2 C 4.8 km/h
278 07-07-2020 23:05:00 17.1 C 9.75 g/m*3 17.1 C 4.8 km/h
279 07-07-2020 23:10:00 17.1 C 9.75 g/m*3 17.1 C 4.8 km/h
280 07-07-2020 23:15:00 17.1 C 9.75 g/m*3 17.1 C 3.2 km/h
281 07-07-2020 23:20:00 17 C 9.69 g/m*3 17 C 3.2 km/h
282 07-07-2020 23:25:00 17 C 9.84 g/m*3 17 C 4.8 km/h
283 07-07-2020 23:30:00 16.9 C 9.78 g/m*3 16.9 C 4.8 km/h
284 07-07-2020 23:35:00 16.9 C 9.78 g/m*3 16.9 C 4.8 km/h
285 07-07-2020 23:40:00 16.9 C 9.78 g/m*3 16.9 C 4.8 km/h
286 07-07-2020 23:45:00 16.9 C 9.78 g/m*3 16.9 C 3.2 km/h
287 07-07-2020 23:50:00 16.8 C 9.87 g/m*3 16.8 C 0 km/h
288 07-07-2020 23:55:00 16.8 C 9.87 g/m*3 16.8 C 4.8 km/h
289 08-07-2020 00:00:00 16.7 C 9.81 g/m*3 16.7 C 4.8 km/h
290 08-07-2020 00:05:00 16.7 C 9.95 g/m*3 16.7 C 0 km/h
291 08-07-2020 00:10:00 16.6 C 10.03 g/m*3 16.6 C 0 km/h
292 08-07-2020 00:15:00 16.6 C 10.03 g/m*3 16.6 C 0 km/h
293 08-07-2020 00:20:00 16.4 C 10.05 g/m*3 16.4 C 0 km/h
294 08-07-2020 00:25:00 16.4 C 9.91 g/m*3 16.4 C 0 km/h
295 08-07-2020 00:30:00 16.3 C 10.13 g/m*3 16.3 C 0 km/h
296 08-07-2020 00:35:00 16.2 C 10.07 g/m*3 16.2 C 0 km/h
297 08-07-2020 00:40:00 16.1 C 10.01 g/m*3 16.1 C 0 km/h
298 08-07-2020 00:45:00 16 C 9.95 g/m*3 16 C 3.2 km/h
299 08-07-2020 00:50:00 15.9 C 9.89 g/m*3 15.9 C 0 km/h
300 08-07-2020 00:55:00 15.9 C 10.02 g/m*3 15.9 C 0 km/h
Sensor: Nr:Datum:Temp:Abs-Feuchte:Windchill:Wind:
Aussen-T/F 301 08-07-2020 01:00:00 15.8 C 9.96 g/m*3 15.8 C 0 km/h
302 08-07-2020 01:05:00 15.8 C 9.96 g/m*3 15.8 C 0 km/h
303 08-07-2020 01:10:00 15.8 C 9.96 g/m*3 15.8 C 0 km/h
304 08-07-2020 01:15:00 15.8 C 9.96 g/m*3 15.8 C 0 km/h
305 08-07-2020 01:20:00 15.8 C 9.96 g/m*3 15.8 C 0 km/h
306 08-07-2020 01:25:00 15.8 C 9.96 g/m*3 15.8 C 0 km/h
307 08-07-2020 01:30:00 15.8 C 10.1 g/m*3 15.8 C 0 km/h
308 08-07-2020 01:35:00 15.8 C 10.1 g/m*3 15.8 C 0 km/h
309 08-07-2020 01:40:00 15.8 C 10.1 g/m*3 15.8 C 1.6 km/h
310 08-07-2020 01:45:00 15.8 C 10.1 g/m*3 15.8 C 0 km/h
311 08-07-2020 01:50:00 15.8 C 10.1 g/m*3 15.8 C 0 km/h
312 08-07-2020 01:55:00 15.8 C 10.1 g/m*3 15.8 C 0 km/h
313 08-07-2020 02:00:00 15.8 C 10.23 g/m*3 15.8 C 0 km/h
314 08-07-2020 02:05:00 15.8 C 9.83 g/m*3 15.8 C 1.6 km/h
315 08-07-2020 02:10:00 15.8 C 9.96 g/m*3 15.8 C 0 km/h
316 08-07-2020 02:15:00 15.8 C 9.96 g/m*3 15.8 C 0 km/h
317 08-07-2020 02:20:00 15.9 C 9.89 g/m*3 15.9 C 1.6 km/h
318 08-07-2020 02:25:00 15.9 C 10.02 g/m*3 15.9 C 0 km/h
319 08-07-2020 02:30:00 15.9 C 9.89 g/m*3 15.9 C 0 km/h
320 08-07-2020 02:35:00 15.9 C 9.89 g/m*3 15.9 C 0 km/h
321 08-07-2020 02:40:00 15.9 C 9.89 g/m*3 15.9 C 0 km/h
322 08-07-2020 02:45:00 16 C 9.81 g/m*3 16 C 1.6 km/h
323 08-07-2020 02:50:00 16 C 9.81 g/m*3 16 C 0 km/h
324 08-07-2020 02:55:00 16.1 C 9.73 g/m*3 16.1 C 0 km/h
325 08-07-2020 03:00:00 16.1 C 9.73 g/m*3 16.1 C 0 km/h
Sensor: Nr:Datum:Temp:Abs-Feuchte:Windchill:Wind:
Aussen-T/F 326 08-07-2020 03:05:00 16.2 C 9.79 g/m*3 16.2 C 0 km/h
327 08-07-2020 03:10:00 16.2 C 9.79 g/m*3 16.2 C 0 km/h
328 08-07-2020 03:15:00 16.2 C 9.79 g/m*3 16.2 C 0 km/h
329 08-07-2020 03:20:00 16.2 C 9.79 g/m*3 16.2 C 0 km/h
330 08-07-2020 03:25:00 16.2 C 9.65 g/m*3 16.2 C 0 km/h
331 08-07-2020 03:30:00 16.3 C 9.57 g/m*3 16.3 C 0 km/h
332 08-07-2020 03:35:00 16.4 C 9.49 g/m*3 16.4 C 6.4 km/h
333 08-07-2020 03:40:00 16.4 C 9.63 g/m*3 16.4 C 0 km/h
334 08-07-2020 03:45:00 16.5 C 9.69 g/m*3 16.5 C 4.8 km/h
335 08-07-2020 03:50:00 16.5 C 9.69 g/m*3 16.5 C 6.4 km/h
336 08-07-2020 03:55:00 16.6 C 9.61 g/m*3 16.6 C 8.1 km/h
337 08-07-2020 04:00:00 16.6 C 9.75 g/m*3 16.6 C 3.2 km/h
338 08-07-2020 04:05:00 16.5 C 9.69 g/m*3 16.5 C 3.2 km/h
339 08-07-2020 04:10:00 16.4 C 9.49 g/m*3 16.4 C 4.8 km/h
340 08-07-2020 04:15:00 16.4 C 9.63 g/m*3 16.4 C 0 km/h
341 08-07-2020 04:20:00 16.4 C 9.63 g/m*3 16.4 C 0 km/h
342 08-07-2020 04:25:00 16.4 C 9.63 g/m*3 16.4 C 0 km/h
343 08-07-2020 04:30:00 16.4 C 9.63 g/m*3 16.4 C 1.6 km/h
344 08-07-2020 04:35:00 16.4 C 9.63 g/m*3 16.4 C 0 km/h
345 08-07-2020 04:40:00 16.4 C 9.77 g/m*3 16.4 C 0 km/h
346 08-07-2020 04:45:00 16.4 C 9.91 g/m*3 16.4 C 0 km/h
347 08-07-2020 04:50:00 16.3 C 9.85 g/m*3 16.3 C 0 km/h
348 08-07-2020 04:55:00 16.3 C 9.99 g/m*3 16.3 C 0 km/h
349 08-07-2020 05:00:00 16.2 C 9.93 g/m*3 16.2 C 0 km/h
350 08-07-2020 05:05:00 16.1 C 10.01 g/m*3 16.1 C 0 km/h
Sensor: Nr:Datum:Temp:Abs-Feuchte:Windchill:Wind:
Aussen-T/F 351 08-07-2020 05:10:00 16 C 9.95 g/m*3 16 C 0 km/h
352 08-07-2020 05:15:00 15.9 C 10.02 g/m*3 15.9 C 0 km/h
353 08-07-2020 05:20:00 15.9 C 10.16 g/m*3 15.9 C 0 km/h
354 08-07-2020 05:25:00 15.8 C 10.1 g/m*3 15.8 C 0 km/h
355 08-07-2020 05:30:00 15.8 C 10.23 g/m*3 15.8 C 0 km/h
356 08-07-2020 05:35:00 15.7 C 10.17 g/m*3 15.7 C 0 km/h
357 08-07-2020 05:40:00 15.7 C 10.3 g/m*3 15.7 C 0 km/h
358 08-07-2020 05:45:00 15.7 C 10.57 g/m*3 15.7 C 0 km/h
359 08-07-2020 05:50:00 15.6 C 10.37 g/m*3 15.6 C 0 km/h
360 08-07-2020 05:55:00 15.6 C 10.37 g/m*3 15.6 C 0 km/h
361 08-07-2020 06:00:00 15.5 C 10.44 g/m*3 15.5 C 0 km/h
362 08-07-2020 06:05:00 15.4 C 10.25 g/m*3 15.4 C 0 km/h
363 08-07-2020 06:10:00 15.4 C 10.25 g/m*3 15.4 C 0 km/h
364 08-07-2020 06:15:00 15.4 C 10.38 g/m*3 15.4 C 0 km/h
365 08-07-2020 06:20:00 15.4 C 10.51 g/m*3 15.4 C 0 km/h
366 08-07-2020 06:25:00 15.4 C 10.51 g/m*3 15.4 C 0 km/h
367 08-07-2020 06:30:00 15.4 C 10.51 g/m*3 15.4 C 0 km/h
368 08-07-2020 06:35:00 15.4 C 10.64 g/m*3 15.4 C 0 km/h
369 08-07-2020 06:40:00 15.4 C 10.64 g/m*3 15.4 C 0 km/h
370 08-07-2020 06:45:00 15.3 C 10.58 g/m*3 15.3 C 0 km/h
371 08-07-2020 06:50:00 15.3 C 10.71 g/m*3 15.3 C 0 km/h
372 08-07-2020 06:55:00 15.3 C 10.84 g/m*3 15.3 C 1.6 km/h
373 08-07-2020 07:00:00 15.4 C 11.04 g/m*3 15.4 C 0 km/h
374 08-07-2020 07:05:00 15.4 C 11.17 g/m*3 15.4 C 1.6 km/h
375 08-07-2020 07:10:00 15.3 C 11.23 g/m*3 15.3 C 0 km/h
Sensor: Nr:Datum:Temp:Abs-Feuchte:Windchill:Wind:
Aussen-T/F 376 08-07-2020 07:15:00 15.2 C 11.16 g/m*3 15.2 C 1.6 km/h
377 08-07-2020 07:20:00 15.1 C 11.09 g/m*3 15.1 C 0 km/h
378 08-07-2020 07:25:00 15.1 C 11.22 g/m*3 15.1 C 0 km/h
379 08-07-2020 07:30:00 15 C 11.16 g/m*3 15 C 0 km/h
380 08-07-2020 07:35:00 14.9 C 11.09 g/m*3 14.9 C 0 km/h
381 08-07-2020 07:40:00 14.8 C 11.02 g/m*3 14.8 C 0 km/h
382 08-07-2020 07:45:00 14.8 C 11.02 g/m*3 14.8 C 0 km/h
383 08-07-2020 07:50:00 14.8 C 11.15 g/m*3 14.8 C 0 km/h
384 08-07-2020 07:55:00 14.8 C 10.89 g/m*3 14.8 C 0 km/h
385 08-07-2020 08:00:00 14.7 C 10.7 g/m*3 14.7 C 0 km/h
386 08-07-2020 08:05:00 14.7 C 10.7 g/m*3 14.7 C 0 km/h
387 08-07-2020 08:10:00 14.7 C 10.2 g/m*3 14.7 C 6.4 km/h
388 08-07-2020 08:15:00 14.8 C 10.13 g/m*3 14.8 C 14.5 km/h
389 08-07-2020 08:20:00 14.8 C 10.13 g/m*3 14.8 C 14.5 km/h
390 08-07-2020 08:25:00 14.7 C 10.07 g/m*3 14.7 C 6.4 km/h
391 08-07-2020 08:30:00 14.6 C 10.01 g/m*3 14.6 C 8.1 km/h
392 08-07-2020 08:35:00 14.4 C 9.89 g/m*3 14.4 C 12.9 km/h
393 08-07-2020 08:40:00 14.4 C 10.01 g/m*3 14.4 C 3.2 km/h
394 08-07-2020 08:45:00 14.3 C 9.83 g/m*3 14.3 C 4.8 km/h
395 08-07-2020 08:50:00 14.3 C 9.95 g/m*3 14.3 C 1.6 km/h
396 08-07-2020 08:55:00 14.3 C 9.95 g/m*3 14.3 C 1.6 km/h
397 08-07-2020 09:00:00 14.3 C 10.07 g/m*3 14.3 C 3.2 km/h
398 08-07-2020 09:05:00 14.2 C 10.01 g/m*3 14.2 C 0 km/h
399 08-07-2020 09:10:00 14.2 C 10.14 g/m*3 14.2 C 6.4 km/h
400 08-07-2020 09:15:00 14.1 C 9.95 g/m*3 14.1 C 6.4 km/h
Sensor: Nr:Datum:Temp:Abs-Feuchte:Windchill:Wind:
Aussen-T/F 401 08-07-2020 09:20:00 14.1 C 10.07 g/m*3 14.1 C 8.1 km/h
402 08-07-2020 09:25:00 13.9 C 10.07 g/m*3 13.9 C 6.4 km/h
403 08-07-2020 09:30:00 13.8 C 10.01 g/m*3 13.8 C 3.2 km/h
404 08-07-2020 09:35:00 13.8 C 10.01 g/m*3 13.8 C 4.8 km/h
405 08-07-2020 09:40:00 13.8 C 10.13 g/m*3 13.8 C 4.8 km/h
406 08-07-2020 09:45:00 13.8 C 10.13 g/m*3 13.8 C 3.2 km/h
407 08-07-2020 09:50:00 13.8 C 10.13 g/m*3 13.8 C 3.2 km/h
408 08-07-2020 09:55:00 13.8 C 10.13 g/m*3 13.8 C 3.2 km/h
409 08-07-2020 10:00:00 13.9 C 10.43 g/m*3 13.9 C 0 km/h
410 08-07-2020 10:05:00 14 C 10.49 g/m*3 14 C 3.2 km/h
411 08-07-2020 10:10:00 14 C 10.49 g/m*3 14 C 4.8 km/h
412 08-07-2020 10:15:00 14 C 10.61 g/m*3 14 C 4.8 km/h
413 08-07-2020 10:20:00 13.9 C 10.67 g/m*3 13.9 C 1.6 km/h
414 08-07-2020 10:25:00 13.9 C 10.67 g/m*3 13.9 C 4.8 km/h
415 08-07-2020 10:30:00 13.8 C 10.6 g/m*3 13.8 C 1.6 km/h
416 08-07-2020 10:35:00 13.7 C 10.54 g/m*3 13.7 C 0 km/h
417 08-07-2020 10:40:00 13.7 C 10.66 g/m*3 13.7 C 1.6 km/h
418 08-07-2020 10:45:00 13.6 C 10.59 g/m*3 13.6 C 1.6 km/h
419 08-07-2020 10:50:00 13.7 C 10.78 g/m*3 13.7 C 3.2 km/h
420 08-07-2020 10:55:00 13.6 C 10.71 g/m*3 13.6 C 1.6 km/h
421 08-07-2020 11:00:00 13.6 C 10.71 g/m*3 13.6 C 0 km/h
422 08-07-2020 11:05:00 13.7 C 10.89 g/m*3 13.7 C 1.6 km/h
423 08-07-2020 11:10:00 13.7 C 10.89 g/m*3 13.7 C 0 km/h
424 08-07-2020 11:15:00 13.8 C 10.96 g/m*3 13.8 C 1.6 km/h
425 08-07-2020 11:20:00 13.8 C 11.08 g/m*3 13.8 C 0 km/h
Sensor: Nr:Datum:Temp:Abs-Feuchte:Windchill:Wind:
Aussen-T/F 426 08-07-2020 11:25:00 14 C 11.22 g/m*3 14 C 4.8 km/h
427 08-07-2020 11:30:00 14.2 C 11.36 g/m*3 14.2 C 4.8 km/h
428 08-07-2020 11:35:00 14.2 C 11.23 g/m*3 14.2 C 9.7 km/h
429 08-07-2020 11:40:00 14.4 C 11.5 g/m*3 14.4 C 6.4 km/h
430 08-07-2020 11:45:00 14.4 C 11.37 g/m*3 14.4 C 6.4 km/h
431 08-07-2020 11:50:00 14.4 C 11.37 g/m*3 14.4 C 3.2 km/h
432 08-07-2020 11:55:00 14.4 C 11.37 g/m*3 14.4 C 6.4 km/h
433 08-07-2020 12:00:00 14.4 C 11.37 g/m*3 14.4 C 3.2 km/h
434 08-07-2020 12:05:00 14.4 C 11.25 g/m*3 14.4 C 4.8 km/h
435 08-07-2020 12:10:00 14.4 C 11.25 g/m*3 14.4 C 1.6 km/h
436 08-07-2020 12:15:00 14.4 C 11.37 g/m*3 14.4 C 0 km/h
437 08-07-2020 12:20:00 14.6 C 11.51 g/m*3 14.6 C 0 km/h
438 08-07-2020 12:25:00 14.8 C 11.78 g/m*3 14.8 C 0 km/h
439 08-07-2020 12:30:00 14.8 C 11.65 g/m*3 14.8 C 3.2 km/h
440 08-07-2020 12:35:00 14.9 C 11.73 g/m*3 14.9 C 1.6 km/h
441 08-07-2020 12:40:00 14.9 C 11.73 g/m*3 14.9 C 4.8 km/h
442 08-07-2020 12:45:00 14.9 C 11.73 g/m*3 14.9 C 4.8 km/h
443 08-07-2020 12:50:00 14.9 C 11.73 g/m*3 14.9 C 4.8 km/h
444 08-07-2020 12:55:00 15 C 11.8 g/m*3 15 C 3.2 km/h
445 08-07-2020 13:00:00 15.1 C 11.87 g/m*3 15.1 C 3.2 km/h
446 08-07-2020 13:05:00 15 C 11.67 g/m*3 15 C 6.4 km/h
447 08-07-2020 13:10:00 15 C 11.8 g/m*3 15 C 4.8 km/h
448 08-07-2020 13:15:00 15.1 C 11.87 g/m*3 15.1 C 6.4 km/h
449 08-07-2020 13:20:00 15.1 C 11.87 g/m*3 15.1 C 4.8 km/h
450 08-07-2020 13:25:00 15.1 C 11.87 g/m*3 15.1 C 8.1 km/h
Sensor: Nr:Datum:Temp:Abs-Feuchte:Windchill:Wind:
Aussen-T/F 451 08-07-2020 13:30:00 15.1 C 11.87 g/m*3 15.1 C 4.8 km/h
452 08-07-2020 13:35:00 15.1 C 11.87 g/m*3 15.1 C 6.4 km/h
453 08-07-2020 13:40:00 15.2 C 11.94 g/m*3 15.2 C 4.8 km/h
454 08-07-2020 13:45:00 15.2 C 11.94 g/m*3 15.2 C 8.1 km/h
455 08-07-2020 13:50:00 15.2 C 12.07 g/m*3 15.2 C 6.4 km/h
456 08-07-2020 13:55:00 15.2 C 11.94 g/m*3 15.2 C 8.1 km/h
457 08-07-2020 14:00:00 15.2 C 12.07 g/m*3 15.2 C 6.4 km/h
458 08-07-2020 14:05:00 15.4 C 12.22 g/m*3 15.4 C 3.2 km/h
459 08-07-2020 14:10:00 15.5 C 12.29 g/m*3 15.5 C 4.8 km/h
460 08-07-2020 14:15:00 15.5 C 12.29 g/m*3 15.5 C 3.2 km/h
461 08-07-2020 14:20:00 15.6 C 12.37 g/m*3 15.6 C 4.8 km/h
462 08-07-2020 14:25:00 15.6 C 12.37 g/m*3 15.6 C 6.4 km/h
463 08-07-2020 14:30:00 15.6 C 12.37 g/m*3 15.6 C 1.6 km/h
464 08-07-2020 14:35:00 15.6 C 12.37 g/m*3 15.6 C 3.2 km/h
465 08-07-2020 14:40:00 15.6 C 12.5 g/m*3 15.6 C 3.2 km/h
466 08-07-2020 14:45:00 15.6 C 12.37 g/m*3 15.6 C 3.2 km/h
467 08-07-2020 14:50:00 15.7 C 12.58 g/m*3 15.7 C 3.2 km/h
468 08-07-2020 14:55:00 15.7 C 12.44 g/m*3 15.7 C 6.4 km/h
469 08-07-2020 15:00:00 15.7 C 12.58 g/m*3 15.7 C 6.4 km/h
470 08-07-2020 15:05:00 15.9 C 12.73 g/m*3 15.9 C 4.8 km/h
471 08-07-2020 15:10:00 16.2 C 13.1 g/m*3 16.2 C 4.8 km/h
472 08-07-2020 15:15:00 16.3 C 13.04 g/m*3 16.3 C 3.2 km/h
473 08-07-2020 15:20:00 16.3 C 13.04 g/m*3 16.3 C 4.8 km/h
474 08-07-2020 15:25:00 16.3 C 13.04 g/m*3 16.3 C 6.4 km/h
475 08-07-2020 15:30:00 16.2 C 12.82 g/m*3 16.2 C 9.7 km/h
Sensor: Nr:Datum:Temp:Abs-Feuchte:Windchill:Wind:
Aussen-T/F 476 08-07-2020 15:35:00 16.1 C 12.75 g/m*3 16.1 C 6.4 km/h
477 08-07-2020 15:40:00 16.1 C 12.75 g/m*3 16.1 C 4.8 km/h
478 08-07-2020 15:45:00 16.1 C 12.75 g/m*3 16.1 C 3.2 km/h
479 08-07-2020 15:50:00 16.2 C 12.82 g/m*3 16.2 C 4.8 km/h
480 08-07-2020 15:55:00 16.2 C 12.96 g/m*3 16.2 C 6.4 km/h
481 08-07-2020 16:00:00 16.3 C 13.04 g/m*3 16.3 C 1.6 km/h
482 08-07-2020 16:05:00 16.4 C 13.12 g/m*3 16.4 C 1.6 km/h
483 08-07-2020 16:10:00 16.4 C 13.12 g/m*3 16.4 C 3.2 km/h
484 08-07-2020 16:15:00 16.3 C 12.9 g/m*3 16.3 C 3.2 km/h
485 08-07-2020 16:20:00 16.4 C 13.12 g/m*3 16.4 C 0 km/h
486 08-07-2020 16:25:00 16.5 C 13.2 g/m*3 16.5 C 0 km/h
487 08-07-2020 16:30:00 16.6 C 13.28 g/m*3 16.6 C 0 km/h
488 08-07-2020 16:35:00 16.6 C 13.28 g/m*3 16.6 C 0 km/h
489 08-07-2020 16:40:00 16.7 C 13.36 g/m*3 16.7 C 0 km/h
490 08-07-2020 16:45:00 16.8 C 13.44 g/m*3 16.8 C 0 km/h
491 08-07-2020 16:50:00 16.8 C 13.44 g/m*3 16.8 C 0 km/h
492 08-07-2020 16:55:00 16.8 C 13.44 g/m*3 16.8 C 0 km/h
493 08-07-2020 17:00:00 16.9 C 13.52 g/m*3 16.9 C 0 km/h
494 08-07-2020 17:05:00 16.9 C 13.52 g/m*3 16.9 C 1.6 km/h
495 08-07-2020 17:10:00 17 C 13.6 g/m*3 17 C 8.1 km/h
496 08-07-2020 17:15:00 17.1 C 13.68 g/m*3 17.1 C 4.8 km/h
497 08-07-2020 17:20:00 17.1 C 13.68 g/m*3 17.1 C 3.2 km/h
498 08-07-2020 17:25:00 17.2 C 13.77 g/m*3 17.2 C 6.4 km/h
499 08-07-2020 17:30:00 17.3 C 13.7 g/m*3 17.3 C 9.7 km/h
500 08-07-2020 17:35:00 17.3 C 13.7 g/m*3 17.3 C 8.1 km/h
Sensor: Nr:Datum:Temp:Abs-Feuchte:Windchill:Wind:
Aussen-T/F 501 08-07-2020 17:40:00 17.6 C 13.95 g/m*3 17.6 C 3.2 km/h
502 08-07-2020 17:45:00 17.7 C 13.88 g/m*3 17.7 C 4.8 km/h
503 08-07-2020 17:50:00 17.8 C 13.96 g/m*3 17.8 C 9.7 km/h
504 08-07-2020 17:55:00 17.8 C 13.81 g/m*3 17.8 C 4.8 km/h
505 08-07-2020 18:00:00 17.9 C 13.89 g/m*3 17.9 C 3.2 km/h
506 08-07-2020 18:05:00 17.9 C 13.89 g/m*3 17.9 C 3.2 km/h
507 08-07-2020 18:10:00 18.1 C 13.91 g/m*3 18.1 C 3.2 km/h
508 08-07-2020 18:15:00 18.1 C 13.91 g/m*3 18.1 C 4.8 km/h
509 08-07-2020 18:20:00 18.1 C 13.91 g/m*3 18.1 C 1.6 km/h
510 08-07-2020 18:25:00 18.1 C 14.06 g/m*3 18.1 C 1.6 km/h
511 08-07-2020 18:30:00 18.1 C 13.91 g/m*3 18.1 C 4.8 km/h
512 08-07-2020 18:35:00 17.9 C 13.74 g/m*3 17.9 C 4.8 km/h
513 08-07-2020 18:40:00 17.8 C 13.81 g/m*3 17.8 C 1.6 km/h
514 08-07-2020 18:45:00 17.7 C 13.73 g/m*3 17.7 C 1.6 km/h
515 08-07-2020 18:50:00 17.6 C 13.65 g/m*3 17.6 C 0 km/h
516 08-07-2020 18:55:00 17.6 C 13.65 g/m*3 17.6 C 0 km/h
517 08-07-2020 19:00:00 17.6 C 13.8 g/m*3 17.6 C 1.6 km/h
518 08-07-2020 19:05:00 17.4 C 13.63 g/m*3 17.4 C 3.2 km/h
519 08-07-2020 19:10:00 17.4 C 13.63 g/m*3 17.4 C 1.6 km/h
520 08-07-2020 19:15:00 17.4 C 13.63 g/m*3 17.4 C 0 km/h
521 08-07-2020 19:20:00 17.4 C 13.78 g/m*3 17.4 C 0 km/h
522 08-07-2020 19:25:00 17.4 C 13.78 g/m*3 17.4 C 0 km/h
523 08-07-2020 19:30:00 17.3 C 13.7 g/m*3 17.3 C 0 km/h
524 08-07-2020 19:35:00 17.3 C 13.7 g/m*3 17.3 C 0 km/h
525 08-07-2020 19:40:00 17.3 C 13.7 g/m*3 17.3 C 0 km/h
Sensor: Nr:Datum:Temp:Abs-Feuchte:Windchill:Wind:
Aussen-T/F 526 08-07-2020 19:45:00 17.3 C 13.7 g/m*3 17.3 C 0 km/h
527 08-07-2020 19:50:00 17.3 C 13.7 g/m*3 17.3 C 0 km/h
528 08-07-2020 19:55:00 17.3 C 13.7 g/m*3 17.3 C 1.6 km/h
529 08-07-2020 20:00:00 17.3 C 13.7 g/m*3 17.3 C 0 km/h
530 08-07-2020 20:05:00 17.3 C 13.7 g/m*3 17.3 C 0 km/h
531 08-07-2020 20:10:00 17.3 C 13.7 g/m*3 17.3 C 0 km/h
532 08-07-2020 20:15:00 17.3 C 13.7 g/m*3 17.3 C 0 km/h
533 08-07-2020 20:20:00 17.3 C 13.7 g/m*3 17.3 C 0 km/h
534 08-07-2020 20:25:00 17.3 C 13.7 g/m*3 17.3 C 0 km/h
535 08-07-2020 20:30:00 17.3 C 13.7 g/m*3 17.3 C 0 km/h
536 08-07-2020 20:35:00 17.2 C 13.62 g/m*3 17.2 C 0 km/h
537 08-07-2020 20:40:00 17.2 C 13.62 g/m*3 17.2 C 0 km/h
538 08-07-2020 20:45:00 17.2 C 13.62 g/m*3 17.2 C 0 km/h
539 08-07-2020 20:50:00 17.1 C 13.54 g/m*3 17.1 C 0 km/h
540 08-07-2020 20:55:00 17.1 C 13.54 g/m*3 17.1 C 0 km/h
541 08-07-2020 21:00:00 17.1 C 13.68 g/m*3 17.1 C 0 km/h
542 08-07-2020 21:05:00 17.1 C 13.68 g/m*3 17.1 C 0 km/h
543 08-07-2020 21:10:00 17 C 13.6 g/m*3 17 C 0 km/h
544 08-07-2020 21:15:00 16.9 C 13.38 g/m*3 16.9 C 0 km/h
545 08-07-2020 21:20:00 16.9 C 13.52 g/m*3 16.9 C 0 km/h
546 08-07-2020 21:25:00 16.9 C 13.52 g/m*3 16.9 C 0 km/h
547 08-07-2020 21:30:00 16.8 C 13.44 g/m*3 16.8 C 0 km/h
548 08-07-2020 21:35:00 16.8 C 13.44 g/m*3 16.8 C 0 km/h
549 08-07-2020 21:40:00 16.8 C 13.44 g/m*3 16.8 C 0 km/h
550 08-07-2020 21:45:00 16.7 C 13.36 g/m*3 16.7 C 0 km/h
Sensor: Nr:Datum:Temp:Abs-Feuchte:Windchill:Wind:
Aussen-T/F 551 08-07-2020 21:50:00 16.7 C 13.36 g/m*3 16.7 C 0 km/h
552 08-07-2020 21:55:00 16.7 C 13.36 g/m*3 16.7 C 0 km/h
553 08-07-2020 22:00:00 16.7 C 13.36 g/m*3 16.7 C 0 km/h
554 08-07-2020 22:05:00 16.6 C 13.28 g/m*3 16.6 C 0 km/h
555 08-07-2020 22:10:00 16.6 C 13.28 g/m*3 16.6 C 0 km/h
556 08-07-2020 22:15:00 16.6 C 13.28 g/m*3 16.6 C 0 km/h
557 08-07-2020 22:20:00 16.6 C 13.28 g/m*3 16.6 C 0 km/h
558 08-07-2020 22:25:00 16.6 C 13.28 g/m*3 16.6 C 1.6 km/h
559 08-07-2020 22:30:00 16.5 C 13.2 g/m*3 16.5 C 0 km/h
560 08-07-2020 22:35:00 16.5 C 13.34 g/m*3 16.5 C 0 km/h
561 08-07-2020 22:40:00 16.4 C 13.26 g/m*3 16.4 C 1.6 km/h
562 08-07-2020 22:45:00 16.4 C 13.26 g/m*3 16.4 C 0 km/h
563 08-07-2020 22:50:00 16.4 C 13.26 g/m*3 16.4 C 4.8 km/h
564 08-07-2020 22:55:00 16.4 C 13.26 g/m*3 16.4 C 3.2 km/h
565 08-07-2020 23:00:00 16.4 C 13.26 g/m*3 16.4 C 3.2 km/h
566 08-07-2020 23:05:00 16.4 C 13.26 g/m*3 16.4 C 3.2 km/h
567 08-07-2020 23:10:00 16.4 C 13.26 g/m*3 16.4 C 3.2 km/h
568 08-07-2020 23:15:00 16.3 C 13.18 g/m*3 16.3 C 1.6 km/h
569 08-07-2020 23:20:00 16.3 C 13.18 g/m*3 16.3 C 0 km/h
570 08-07-2020 23:25:00 16.3 C 13.18 g/m*3 16.3 C 1.6 km/h
571 08-07-2020 23:30:00 16.3 C 13.18 g/m*3 16.3 C 3.2 km/h
572 08-07-2020 23:35:00 16.4 C 13.26 g/m*3 16.4 C 3.2 km/h
573 08-07-2020 23:40:00 16.4 C 13.26 g/m*3 16.4 C 1.6 km/h
574 08-07-2020 23:45:00 16.4 C 13.26 g/m*3 16.4 C 3.2 km/h
575 08-07-2020 23:50:00 16.4 C 13.26 g/m*3 16.4 C 4.8 km/h
Sensor: Nr:Datum:Temp:Abs-Feuchte:Windchill:Wind:
Aussen-T/F 576 08-07-2020 23:55:00 16.4 C 13.26 g/m*3 16.4 C 3.2 km/h
577 09-07-2020 00:00:00 16.4 C 13.26 g/m*3 16.4 C 1.6 km/h
578 09-07-2020 00:05:00 16.4 C 13.26 g/m*3 16.4 C 4.8 km/h
579 09-07-2020 00:10:00 16.4 C 13.26 g/m*3 16.4 C 0 km/h
580 09-07-2020 00:15:00 16.4 C 13.26 g/m*3 16.4 C 0 km/h
581 09-07-2020 00:20:00 16.4 C 13.4 g/m*3 16.4 C 0 km/h
582 09-07-2020 00:25:00 16.5 C 13.48 g/m*3 16.5 C 1.6 km/h
583 09-07-2020 00:30:00 16.5 C 13.48 g/m*3 16.5 C 1.6 km/h
584 09-07-2020 00:35:00 16.6 C 13.56 g/m*3 16.6 C 1.6 km/h
585 09-07-2020 00:40:00 16.6 C 13.56 g/m*3 16.6 C 1.6 km/h
586 09-07-2020 00:45:00 16.6 C 13.56 g/m*3 16.6 C 0 km/h
587 09-07-2020 00:50:00 16.6 C 13.56 g/m*3 16.6 C 0 km/h
588 09-07-2020 00:55:00 16.6 C 13.56 g/m*3 16.6 C 0 km/h
589 09-07-2020 01:00:00 16.6 C 13.56 g/m*3 16.6 C 0 km/h
590 09-07-2020 01:05:00 16.6 C 13.56 g/m*3 16.6 C 0 km/h
591 09-07-2020 01:10:00 16.6 C 13.56 g/m*3 16.6 C 3.2 km/h
592 09-07-2020 01:15:00 16.6 C 13.56 g/m*3 16.6 C 1.6 km/h
593 09-07-2020 01:20:00 16.6 C 13.56 g/m*3 16.6 C 1.6 km/h
594 09-07-2020 01:25:00 16.7 C 13.64 g/m*3 16.7 C 3.2 km/h
595 09-07-2020 01:30:00 16.7 C 13.64 g/m*3 16.7 C 1.6 km/h
596 09-07-2020 01:35:00 16.7 C 13.64 g/m*3 16.7 C 3.2 km/h
597 09-07-2020 01:40:00 16.7 C 13.64 g/m*3 16.7 C 4.8 km/h
598 09-07-2020 01:45:00 16.8 C 13.73 g/m*3 16.8 C 3.2 km/h
599 09-07-2020 01:50:00 16.8 C 13.73 g/m*3 16.8 C 6.4 km/h
600 09-07-2020 01:55:00 16.8 C 13.73 g/m*3 16.8 C 6.4 km/h
Sensor: Nr:Datum:Temp:Abs-Feuchte:Windchill:Wind:
Aussen-T/F 601 09-07-2020 02:00:00 16.8 C 13.73 g/m*3 16.8 C 3.2 km/h
602 09-07-2020 02:05:00 16.8 C 13.73 g/m*3 16.8 C 1.6 km/h
603 09-07-2020 02:10:00 16.8 C 13.73 g/m*3 16.8 C 1.6 km/h
604 09-07-2020 02:15:00 16.8 C 13.73 g/m*3 16.8 C 1.6 km/h
605 09-07-2020 02:20:00 16.8 C 13.73 g/m*3 16.8 C 3.2 km/h
606 09-07-2020 02:25:00 16.8 C 13.73 g/m*3 16.8 C 3.2 km/h
607 09-07-2020 02:30:00 16.8 C 13.73 g/m*3 16.8 C 1.6 km/h
608 09-07-2020 02:35:00 16.7 C 13.64 g/m*3 16.7 C 1.6 km/h
609 09-07-2020 02:40:00 16.7 C 13.64 g/m*3 16.7 C 1.6 km/h
610 09-07-2020 02:45:00 16.7 C 13.64 g/m*3 16.7 C 0 km/h
611 09-07-2020 02:50:00 16.7 C 13.64 g/m*3 16.7 C 1.6 km/h
612 09-07-2020 02:55:00 16.7 C 13.64 g/m*3 16.7 C 0 km/h
613 09-07-2020 03:00:00 16.7 C 13.64 g/m*3 16.7 C 0 km/h
614 09-07-2020 03:05:00 16.7 C 13.64 g/m*3 16.7 C 3.2 km/h
615 09-07-2020 03:10:00 16.7 C 13.64 g/m*3 16.7 C 0 km/h
616 09-07-2020 03:15:00 16.7 C 13.64 g/m*3 16.7 C 1.6 km/h
617 09-07-2020 03:20:00 16.7 C 13.64 g/m*3 16.7 C 3.2 km/h
618 09-07-2020 03:25:00 16.6 C 13.56 g/m*3 16.6 C 4.8 km/h
619 09-07-2020 03:30:00 16.7 C 13.64 g/m*3 16.7 C 3.2 km/h
620 09-07-2020 03:35:00 16.7 C 13.64 g/m*3 16.7 C 3.2 km/h
621 09-07-2020 03:40:00 16.7 C 13.64 g/m*3 16.7 C 1.6 km/h
622 09-07-2020 03:45:00 16.7 C 13.64 g/m*3 16.7 C 3.2 km/h
623 09-07-2020 03:50:00 16.7 C 13.64 g/m*3 16.7 C 3.2 km/h
624 09-07-2020 03:55:00 16.7 C 13.64 g/m*3 16.7 C 1.6 km/h
625 09-07-2020 04:00:00 16.7 C 13.64 g/m*3 16.7 C 3.2 km/h
Sensor: Nr:Datum:Temp:Abs-Feuchte:Windchill:Wind:
Aussen-T/F 626 09-07-2020 04:05:00 16.7 C 13.64 g/m*3 16.7 C 8.1 km/h
627 09-07-2020 04:10:00 16.7 C 13.64 g/m*3 16.7 C 3.2 km/h
628 09-07-2020 04:15:00 16.7 C 13.64 g/m*3 16.7 C 3.2 km/h
629 09-07-2020 04:20:00 16.8 C 13.73 g/m*3 16.8 C 3.2 km/h
630 09-07-2020 04:25:00 16.8 C 13.73 g/m*3 16.8 C 3.2 km/h
631 09-07-2020 04:30:00 16.8 C 13.73 g/m*3 16.8 C 4.8 km/h
632 09-07-2020 04:35:00 16.8 C 13.73 g/m*3 16.8 C 0 km/h
633 09-07-2020 04:40:00 16.8 C 13.73 g/m*3 16.8 C 0 km/h
634 09-07-2020 04:45:00 16.8 C 13.73 g/m*3 16.8 C 1.6 km/h
635 09-07-2020 04:50:00 16.8 C 13.73 g/m*3 16.8 C 0 km/h
636 09-07-2020 04:55:00 16.8 C 13.73 g/m*3 16.8 C 0 km/h
637 09-07-2020 05:00:00 16.8 C 13.73 g/m*3 16.8 C 3.2 km/h
638 09-07-2020 05:05:00 16.8 C 13.73 g/m*3 16.8 C 1.6 km/h
639 09-07-2020 05:10:00 16.8 C 13.73 g/m*3 16.8 C 4.8 km/h
640 09-07-2020 05:15:00 16.8 C 13.73 g/m*3 16.8 C 1.6 km/h
641 09-07-2020 05:20:00 16.8 C 13.73 g/m*3 16.8 C 1.6 km/h
642 09-07-2020 05:25:00 16.8 C 13.73 g/m*3 16.8 C 1.6 km/h
643 09-07-2020 05:30:00 16.8 C 13.73 g/m*3 16.8 C 1.6 km/h
644 09-07-2020 05:35:00 16.9 C 13.81 g/m*3 16.9 C 3.2 km/h
645 09-07-2020 05:40:00 16.9 C 13.81 g/m*3 16.9 C 4.8 km/h
646 09-07-2020 05:45:00 16.9 C 13.81 g/m*3 16.9 C 3.2 km/h
647 09-07-2020 05:50:00 16.9 C 13.81 g/m*3 16.9 C 1.6 km/h
648 09-07-2020 05:55:00 16.9 C 13.81 g/m*3 16.9 C 4.8 km/h
649 09-07-2020 06:00:00 16.9 C 13.81 g/m*3 16.9 C 8.1 km/h
650 09-07-2020 06:05:00 16.9 C 13.81 g/m*3 16.9 C 3.2 km/h
Sensor: Nr:Datum:Temp:Abs-Feuchte:Windchill:Wind:
Aussen-T/F 651 09-07-2020 06:10:00 17 C 13.89 g/m*3 17 C 6.4 km/h
652 09-07-2020 06:15:00 17 C 13.89 g/m*3 17 C 6.4 km/h
653 09-07-2020 06:20:00 17 C 13.75 g/m*3 17 C 1.6 km/h
654 09-07-2020 06:25:00 17.1 C 13.83 g/m*3 17.1 C 0 km/h
655 09-07-2020 06:30:00 17.1 C 13.83 g/m*3 17.1 C 3.2 km/h
656 09-07-2020 06:35:00 17.1 C 13.83 g/m*3 17.1 C 3.2 km/h
657 09-07-2020 06:40:00 17.1 C 13.83 g/m*3 17.1 C 6.4 km/h
658 09-07-2020 06:45:00 17.2 C 13.91 g/m*3 17.2 C 3.2 km/h
659 09-07-2020 06:50:00 17.2 C 13.91 g/m*3 17.2 C 1.6 km/h
660 09-07-2020 06:55:00 17.2 C 13.91 g/m*3 17.2 C 4.8 km/h
661 09-07-2020 07:00:00 17.3 C 14 g/m*3 17.3 C 1.6 km/h
662 09-07-2020 07:05:00 17.3 C 14 g/m*3 17.3 C 4.8 km/h
663 09-07-2020 07:10:00 17.3 C 13.85 g/m*3 17.3 C 1.6 km/h
664 09-07-2020 07:15:00 17.4 C 13.93 g/m*3 17.4 C 14.5 km/h
665 09-07-2020 07:20:00 17.5 C 13.87 g/m*3 17.5 C 4.8 km/h
666 09-07-2020 07:25:00 17.6 C 13.95 g/m*3 17.6 C 9.7 km/h
667 09-07-2020 07:30:00 17.7 C 14.03 g/m*3 17.7 C 1.6 km/h
668 09-07-2020 07:35:00 17.7 C 13.88 g/m*3 17.7 C 8.1 km/h
669 09-07-2020 07:40:00 17.8 C 13.96 g/m*3 17.8 C 8.1 km/h
670 09-07-2020 07:45:00 17.9 C 14.05 g/m*3 17.9 C 6.4 km/h
671 09-07-2020 07:50:00 18 C 13.98 g/m*3 18 C 6.4 km/h
672 09-07-2020 07:55:00 18.1 C 14.06 g/m*3 18.1 C 4.8 km/h
673 09-07-2020 08:00:00 18.2 C 13.99 g/m*3 18.2 C 6.4 km/h
674 09-07-2020 08:05:00 18.3 C 14.07 g/m*3 18.3 C 9.7 km/h
675 09-07-2020 08:10:00 18.4 C 14.16 g/m*3 18.4 C 9.7 km/h
Sensor: Nr:Datum:Temp:Abs-Feuchte:Windchill:Wind:
Aussen-T/F 676 09-07-2020 08:15:00 18.6 C 14.17 g/m*3 18.6 C 6.4 km/h
677 09-07-2020 08:20:00 18.6 C 14.17 g/m*3 18.6 C 6.4 km/h
678 09-07-2020 08:25:00 18.7 C 14.09 g/m*3 18.7 C 8.1 km/h
679 09-07-2020 08:30:00 18.8 C 14.17 g/m*3 18.8 C 6.4 km/h
680 09-07-2020 08:35:00 18.8 C 14.17 g/m*3 18.8 C 4.8 km/h
681 09-07-2020 08:40:00 18.8 C 14.01 g/m*3 18.8 C 11.3 km/h
682 09-07-2020 08:45:00 18.9 C 14.26 g/m*3 18.9 C 1.6 km/h
683 09-07-2020 08:50:00 19 C 14.18 g/m*3 19 C 3.2 km/h
684 09-07-2020 08:55:00 19.1 C 14.26 g/m*3 19.1 C 6.4 km/h
685 09-07-2020 09:00:00 19.2 C 14.35 g/m*3 19.2 C 8.1 km/h
686 09-07-2020 09:05:00 19.3 C 14.43 g/m*3 19.3 C 6.4 km/h
687 09-07-2020 09:10:00 19.4 C 14.35 g/m*3 19.4 C 9.7 km/h
688 09-07-2020 09:15:00 19.5 C 14.43 g/m*3 19.5 C 8.1 km/h
689 09-07-2020 09:20:00 19.6 C 14.18 g/m*3 19.6 C 12.9 km/h
690 09-07-2020 09:25:00 19.7 C 14.43 g/m*3 19.7 C 8.1 km/h
691 09-07-2020 09:30:00 19.8 C 14.52 g/m*3 19.8 C 9.7 km/h
692 09-07-2020 09:35:00 19.9 C 14.43 g/m*3 19.9 C 11.3 km/h
693 09-07-2020 09:40:00 19.9 C 14.26 g/m*3 19.9 C 11.3 km/h
694 09-07-2020 09:45:00 20 C 14.34 g/m*3 20 C 9.7 km/h
695 09-07-2020 09:50:00 20 C 14.34 g/m*3 20 C 11.3 km/h
696 09-07-2020 09:55:00 20.1 C 14.43 g/m*3 20.1 C 9.7 km/h
697 09-07-2020 10:00:00 20.1 C 14.43 g/m*3 20.1 C 12.9 km/h
698 09-07-2020 10:05:00 20.2 C 14.51 g/m*3 20.2 C 8.1 km/h
699 09-07-2020 10:10:00 20.3 C 14.6 g/m*3 20.3 C 9.7 km/h
700 09-07-2020 10:15:00 20.3 C 14.42 g/m*3 20.3 C 11.3 km/h
Sensor: Nr:Datum:Temp:Abs-Feuchte:Windchill:Wind:
Aussen-T/F 701 09-07-2020 10:20:00 20.3 C 14.6 g/m*3 20.3 C 8.1 km/h
702 09-07-2020 10:25:00 20.3 C 14.42 g/m*3 20.3 C 4.8 km/h
703 09-07-2020 10:30:00 20.3 C 14.42 g/m*3 20.3 C 9.7 km/h
704 09-07-2020 10:35:00 20.5 C 14.77 g/m*3 20.5 C 4.8 km/h
705 09-07-2020 10:40:00 20.6 C 14.5 g/m*3 20.6 C 9.7 km/h
706 09-07-2020 10:45:00 20.7 C 14.58 g/m*3 20.7 C 11.3 km/h
707 09-07-2020 10:50:00 20.6 C 14.5 g/m*3 20.6 C 9.7 km/h
708 09-07-2020 10:55:00 20.7 C 14.58 g/m*3 20.7 C 12.9 km/h
709 09-07-2020 11:00:00 20.8 C 14.67 g/m*3 20.8 C 9.7 km/h
710 09-07-2020 11:05:00 21.1 C 14.74 g/m*3 21.1 C 11.3 km/h
711 09-07-2020 11:10:00 21.2 C 14.64 g/m*3 21.2 C 12.9 km/h
712 09-07-2020 11:15:00 21.3 C 14.73 g/m*3 21.3 C 12.9 km/h
713 09-07-2020 11:20:00 21.4 C 14.81 g/m*3 21.4 C 9.7 km/h
714 09-07-2020 11:25:00 21.7 C 14.69 g/m*3 21.7 C 14.5 km/h
715 09-07-2020 11:30:00 21.8 C 14.77 g/m*3 21.8 C 14.5 km/h
716 09-07-2020 11:35:00 21.8 C 14.77 g/m*3 21.8 C 6.4 km/h
717 09-07-2020 11:40:00 22 C 14.94 g/m*3 22 C 12.9 km/h
718 09-07-2020 11:45:00 22.1 C 14.84 g/m*3 22.1 C 12.9 km/h
719 09-07-2020 11:50:00 22.2 C 15.12 g/m*3 22.2 C 9.7 km/h
720 09-07-2020 11:55:00 22.3 C 14.81 g/m*3 22.3 C 9.7 km/h
721 09-07-2020 12:00:00 22.3 C 14.81 g/m*3 22.3 C 9.7 km/h
722 09-07-2020 12:05:00 22.4 C 14.7 g/m*3 22.4 C 11.3 km/h
723 09-07-2020 12:10:00 22.6 C 14.87 g/m*3 22.6 C 16.1 km/h
724 09-07-2020 12:15:00 22.7 C 14.75 g/m*3 22.7 C 16.1 km/h
725 09-07-2020 12:20:00 22.8 C 15.04 g/m*3 22.8 C 12.9 km/h
Sensor: Nr:Datum:Temp:Abs-Feuchte:Windchill:Wind:
Aussen-T/F 726 09-07-2020 12:25:00 22.8 C 14.83 g/m*3 22.8 C 8.1 km/h
727 09-07-2020 12:30:00 23 C 14.8 g/m*3 23 C 12.9 km/h
728 09-07-2020 12:35:00 23.2 C 15.18 g/m*3 23.2 C 8.1 km/h
729 09-07-2020 12:40:00 23.3 C 14.43 g/m*3 23.3 C 8.1 km/h
730 09-07-2020 12:45:00 23.4 C 14.3 g/m*3 23.4 C 9.7 km/h
731 09-07-2020 12:50:00 23.7 C 14.97 g/m*3 23.7 C 12.9 km/h
732 09-07-2020 12:55:00 23.8 C 14.84 g/m*3 23.8 C 9.7 km/h
733 09-07-2020 13:00:00 24 C 15.23 g/m*3 24 C 4.8 km/h
734 09-07-2020 13:05:00 24.2 C 15.4 g/m*3 24.2 C 11.3 km/h
735 09-07-2020 13:10:00 24.3 C 14.38 g/m*3 24.3 C 11.3 km/h
736 09-07-2020 13:15:00 24.4 C 13.8 g/m*3 24.4 C 12.9 km/h
737 09-07-2020 13:20:00 24.6 C 13.95 g/m*3 24.6 C 20.9 km/h
738 09-07-2020 13:25:00 24.7 C 14.49 g/m*3 24.7 C 14.5 km/h
739 09-07-2020 13:30:00 24.6 C 14.18 g/m*3 24.6 C 16.1 km/h
740 09-07-2020 13:35:00 24.6 C 13.73 g/m*3 24.6 C 14.5 km/h
741 09-07-2020 13:40:00 24.6 C 13.95 g/m*3 24.6 C 11.3 km/h
742 09-07-2020 13:45:00 24.6 C 13.73 g/m*3 24.6 C 17.7 km/h
743 09-07-2020 13:50:00 24.7 C 12.9 g/m*3 24.7 C 12.9 km/h
744 09-07-2020 13:55:00 24.9 C 13.28 g/m*3 24.9 C 17.7 km/h
745 09-07-2020 14:00:00 25.1 C 13.2 g/m*3 25.1 C 16.1 km/h
746 09-07-2020 14:05:00 25.4 C 13.89 g/m*3 25.4 C 20.9 km/h
747 09-07-2020 14:10:00 25.5 C 13.73 g/m*3 25.5 C 22.5 km/h
748 09-07-2020 14:15:00 25.6 C 13.09 g/m*3 25.6 C 16.1 km/h
749 09-07-2020 14:20:00 25.8 C 13.24 g/m*3 25.8 C 12.9 km/h
750 09-07-2020 14:25:00 26.1 C 13.22 g/m*3 26.1 C 19.3 km/h
Sensor: Nr:Datum:Temp:Abs-Feuchte:Windchill:Wind:
Aussen-T/F 751 09-07-2020 14:30:00 26.2 C 13.29 g/m*3 26.2 C 19.3 km/h
752 09-07-2020 14:35:00 26.4 C 13.19 g/m*3 26.4 C 12.9 km/h
753 09-07-2020 14:40:00 26.5 C 13.52 g/m*3 26.5 C 11.3 km/h
754 09-07-2020 14:45:00 26.8 C 13.74 g/m*3 26.8 C 9.7 km/h
755 09-07-2020 14:50:00 26.9 C 13.56 g/m*3 26.9 C 14.5 km/h
756 09-07-2020 14:55:00 27.1 C 13.97 g/m*3 27.1 C 12.9 km/h
757 09-07-2020 15:00:00 27.2 C 14.05 g/m*3 27.2 C 11.3 km/h
758 09-07-2020 15:05:00 27.3 C 12.82 g/m*3 27.3 C 14.5 km/h
759 09-07-2020 15:10:00 27 C 12.87 g/m*3 27 C 14.5 km/h
760 09-07-2020 15:15:00 26.8 C 13.49 g/m*3 26.8 C 11.3 km/h
761 09-07-2020 15:20:00 26.8 C 13.24 g/m*3 26.8 C 12.9 km/h
762 09-07-2020 15:25:00 26.8 C 12.98 g/m*3 26.8 C 12.9 km/h
763 09-07-2020 15:30:00 26.8 C 13.24 g/m*3 26.8 C 12.9 km/h
764 09-07-2020 15:35:00 26.9 C 12.54 g/m*3 26.9 C 16.1 km/h
765 09-07-2020 15:40:00 27 C 12.61 g/m*3 27 C 14.5 km/h
766 09-07-2020 15:45:00 27.3 C 13.08 g/m*3 27.3 C 11.3 km/h
767 09-07-2020 15:50:00 27.6 C 12.24 g/m*3 27.6 C 20.9 km/h
768 09-07-2020 15:55:00 27.5 C 12.7 g/m*3 27.5 C 16.1 km/h
769 09-07-2020 16:00:00 27.6 C 12.5 g/m*3 27.6 C 17.7 km/h
770 09-07-2020 16:05:00 27.7 C 12.57 g/m*3 27.7 C 16.1 km/h
771 09-07-2020 16:10:00 27.8 C 12.91 g/m*3 27.8 C 14.5 km/h
772 09-07-2020 16:15:00 28.3 C 12.44 g/m*3 28.3 C 20.9 km/h
773 09-07-2020 16:20:00 28.4 C 13.06 g/m*3 28.4 C 14.5 km/h
774 09-07-2020 16:25:00 28.6 C 12.37 g/m*3 28.6 C 19.3 km/h
775 09-07-2020 16:30:00 28.3 C 12.44 g/m*3 28.3 C 14.5 km/h
Sensor: Nr:Datum:Temp:Abs-Feuchte:Windchill:Wind:
Aussen-T/F 776 09-07-2020 16:35:00 28.1 C 12.3 g/m*3 28.1 C 17.7 km/h
777 09-07-2020 16:40:00 28 C 12.78 g/m*3 28 C 19.3 km/h
778 09-07-2020 16:45:00 27.9 C 12.17 g/m*3 27.9 C 20.9 km/h
779 09-07-2020 16:50:00 27.8 C 12.64 g/m*3 27.8 C 12.9 km/h
780 09-07-2020 16:55:00 28.1 C 12.03 g/m*3 28.1 C 22.5 km/h
781 09-07-2020 17:00:00 28.1 C 12.3 g/m*3 28.1 C 19.3 km/h
782 09-07-2020 17:05:00 28.1 C 12.3 g/m*3 28.1 C 24.1 km/h
783 09-07-2020 17:10:00 28.2 C 12.1 g/m*3 28.2 C 20.9 km/h
784 09-07-2020 17:15:00 28 C 12.24 g/m*3 28 C 22.5 km/h
785 09-07-2020 17:20:00 27.8 C 12.1 g/m*3 27.8 C 16.1 km/h
786 09-07-2020 17:25:00 27.7 C 12.3 g/m*3 27.7 C 12.9 km/h
787 09-07-2020 17:30:00 27.6 C 11.97 g/m*3 27.6 C 16.1 km/h
788 09-07-2020 17:35:00 27.6 C 12.24 g/m*3 27.6 C 11.3 km/h
789 09-07-2020 17:40:00 27.7 C 12.57 g/m*3 27.7 C 12.9 km/h
790 09-07-2020 17:45:00 27.8 C 12.37 g/m*3 27.8 C 11.3 km/h
791 09-07-2020 17:50:00 27.7 C 12.04 g/m*3 27.7 C 16.1 km/h
792 09-07-2020 17:55:00 27.7 C 12.57 g/m*3 27.7 C 8.1 km/h
793 09-07-2020 18:00:00 27.7 C 12.04 g/m*3 27.7 C 16.1 km/h
794 09-07-2020 18:05:00 27.7 C 12.57 g/m*3 27.7 C 11.3 km/h
795 09-07-2020 18:10:00 27.6 C 12.24 g/m*3 27.6 C 16.1 km/h
796 09-07-2020 18:15:00 27.6 C 11.97 g/m*3 27.6 C 11.3 km/h
797 09-07-2020 18:20:00 27.6 C 12.24 g/m*3 27.6 C 16.1 km/h
798 09-07-2020 18:25:00 27.7 C 12.04 g/m*3 27.7 C 8.1 km/h
799 09-07-2020 18:30:00 27.9 C 12.17 g/m*3 27.9 C 8.1 km/h
800 09-07-2020 18:35:00 28 C 12.24 g/m*3 28 C 11.3 km/h
Sensor: Nr:Datum:Temp:Abs-Feuchte:Windchill:Wind:
Aussen-T/F 801 09-07-2020 18:40:00 27.9 C 11.63 g/m*3 27.9 C 14.5 km/h
802 09-07-2020 18:45:00 27.8 C 11.83 g/m*3 27.8 C 11.3 km/h
803 09-07-2020 18:50:00 27.8 C 11.83 g/m*3 27.8 C 16.1 km/h
804 09-07-2020 18:55:00 27.9 C 12.17 g/m*3 27.9 C 8.1 km/h
805 09-07-2020 19:00:00 27.8 C 11.57 g/m*3 27.8 C 12.9 km/h
806 09-07-2020 19:05:00 27.6 C 11.71 g/m*3 27.6 C 11.3 km/h
807 09-07-2020 19:10:00 27.5 C 12.17 g/m*3 27.5 C 4.8 km/h
808 09-07-2020 19:15:00 27.4 C 11.58 g/m*3 27.4 C 12.9 km/h
809 09-07-2020 19:20:00 27.4 C 11.58 g/m*3 27.4 C 11.3 km/h
810 09-07-2020 19:25:00 27.4 C 12.1 g/m*3 27.4 C 9.7 km/h
811 09-07-2020 19:30:00 27.4 C 11.84 g/m*3 27.4 C 8.1 km/h
812 09-07-2020 19:35:00 27.3 C 13.08 g/m*3 27.3 C 3.2 km/h
813 09-07-2020 19:40:00 27.2 C 12.75 g/m*3 27.2 C 0 km/h
814 09-07-2020 19:45:00 26.9 C 12.8 g/m*3 26.9 C 1.6 km/h
815 09-07-2020 19:50:00 26.8 C 11.96 g/m*3 26.8 C 8.1 km/h
816 09-07-2020 19:55:00 26.7 C 13.16 g/m*3 26.7 C 3.2 km/h
817 09-07-2020 20:00:00 26.7 C 13.16 g/m*3 26.7 C 1.6 km/h
818 09-07-2020 20:05:00 26.6 C 13.34 g/m*3 26.6 C 4.8 km/h
819 09-07-2020 20:10:00 26.4 C 11.95 g/m*3 26.4 C 4.8 km/h
820 09-07-2020 20:15:00 26.6 C 12.08 g/m*3 26.6 C 8.1 km/h
821 09-07-2020 20:20:00 26.8 C 10.94 g/m*3 26.8 C 11.3 km/h
822 09-07-2020 20:25:00 26.9 C 12.29 g/m*3 26.9 C 9.7 km/h
823 09-07-2020 20:30:00 26.7 C 12.66 g/m*3 26.7 C 6.4 km/h
824 09-07-2020 20:35:00 26.3 C 12.87 g/m*3 26.3 C 6.4 km/h
825 09-07-2020 20:40:00 26.1 C 12.98 g/m*3 26.1 C 4.8 km/h
Sensor: Nr:Datum:Temp:Abs-Feuchte:Windchill:Wind:
Aussen-T/F 826 09-07-2020 20:45:00 25.8 C 13.24 g/m*3 25.8 C 4.8 km/h
827 09-07-2020 20:50:00 25.6 C 13.81 g/m*3 25.6 C 0 km/h
828 09-07-2020 20:55:00 25.4 C 14.13 g/m*3 25.4 C 0 km/h
829 09-07-2020 21:00:00 25.2 C 14.2 g/m*3 25.2 C 0 km/h
830 09-07-2020 21:05:00 24.8 C 14.11 g/m*3 24.8 C 0 km/h
831 09-07-2020 21:10:00 24.5 C 14.32 g/m*3 24.5 C 0 km/h
832 09-07-2020 21:15:00 24.2 C 14.3 g/m*3 24.2 C 0 km/h
833 09-07-2020 21:20:00 23.9 C 14.06 g/m*3 23.9 C 0 km/h
834 09-07-2020 21:25:00 23.6 C 14.25 g/m*3 23.6 C 0 km/h
835 09-07-2020 21:30:00 23.3 C 14.01 g/m*3 23.3 C 0 km/h
836 09-07-2020 21:35:00 23 C 13.98 g/m*3 23 C 0 km/h
837 09-07-2020 21:40:00 22.8 C 14.02 g/m*3 22.8 C 0 km/h
838 09-07-2020 21:45:00 22.6 C 14.26 g/m*3 22.6 C 0 km/h
839 09-07-2020 21:50:00 22.3 C 14.02 g/m*3 22.3 C 0 km/h
840 09-07-2020 21:55:00 22.1 C 13.86 g/m*3 22.1 C 0 km/h
841 09-07-2020 22:00:00 22 C 13.97 g/m*3 22 C 0 km/h
842 09-07-2020 22:05:00 21.8 C 14.01 g/m*3 21.8 C 0 km/h
843 09-07-2020 22:10:00 21.8 C 14.2 g/m*3 21.8 C 0 km/h
844 09-07-2020 22:15:00 21.7 C 14.12 g/m*3 21.7 C 0 km/h
845 09-07-2020 22:20:00 21.6 C 14.22 g/m*3 21.6 C 0 km/h
846 09-07-2020 22:25:00 21.4 C 14.06 g/m*3 21.4 C 0 km/h
847 09-07-2020 22:30:00 21.3 C 13.98 g/m*3 21.3 C 0 km/h
848 09-07-2020 22:35:00 21.2 C 13.9 g/m*3 21.2 C 0 km/h
849 09-07-2020 22:40:00 21.2 C 14.08 g/m*3 21.2 C 0 km/h
850 09-07-2020 22:45:00 21.1 C 14.19 g/m*3 21.1 C 0 km/h
Sensor: Nr:Datum:Temp:Abs-Feuchte:Windchill:Wind:
Aussen-T/F 851 09-07-2020 22:50:00 21.1 C 14.19 g/m*3 21.1 C 3.2 km/h
852 09-07-2020 22:55:00 20.9 C 14.02 g/m*3 20.9 C 3.2 km/h
853 09-07-2020 23:00:00 20.9 C 14.02 g/m*3 20.9 C 0 km/h
854 09-07-2020 23:05:00 20.8 C 13.94 g/m*3 20.8 C 0 km/h
855 09-07-2020 23:10:00 20.8 C 13.94 g/m*3 20.8 C 0 km/h
856 09-07-2020 23:15:00 20.7 C 14.04 g/m*3 20.7 C 0 km/h
857 09-07-2020 23:20:00 20.6 C 13.96 g/m*3 20.6 C 0 km/h
858 09-07-2020 23:25:00 20.4 C 13.98 g/m*3 20.4 C 0 km/h
859 09-07-2020 23:30:00 20.4 C 13.98 g/m*3 20.4 C 0 km/h
860 09-07-2020 23:35:00 20.3 C 13.89 g/m*3 20.3 C 0 km/h
861 09-07-2020 23:40:00 20.2 C 13.81 g/m*3 20.2 C 0 km/h
862 09-07-2020 23:45:00 20.2 C 13.81 g/m*3 20.2 C 0 km/h
863 09-07-2020 23:50:00 20.1 C 13.91 g/m*3 20.1 C 0 km/h
864 09-07-2020 23:55:00 19.9 C 13.57 g/m*3 19.9 C 0 km/h
865 10-07-2020 00:00:00 19.8 C 13.49 g/m*3 19.8 C 0 km/h
866 10-07-2020 00:05:00 19.7 C 13.58 g/m*3 19.7 C 0 km/h
867 10-07-2020 00:10:00 19.5 C 13.43 g/m*3 19.5 C 0 km/h
868 10-07-2020 00:15:00 19.3 C 13.44 g/m*3 19.3 C 0 km/h
869 10-07-2020 00:20:00 19.2 C 13.36 g/m*3 19.2 C 0 km/h
870 10-07-2020 00:25:00 19 C 13.36 g/m*3 19 C 0 km/h
871 10-07-2020 00:30:00 18.8 C 13.21 g/m*3 18.8 C 0 km/h
872 10-07-2020 00:35:00 18.7 C 13.29 g/m*3 18.7 C 0 km/h
873 10-07-2020 00:40:00 18.6 C 13.21 g/m*3 18.6 C 0 km/h
874 10-07-2020 00:45:00 18.4 C 13.21 g/m*3 18.4 C 0 km/h
875 10-07-2020 00:50:00 18.3 C 13.13 g/m*3 18.3 C 0 km/h
Sensor: Nr:Datum:Temp:Abs-Feuchte:Windchill:Wind:
Aussen-T/F 876 10-07-2020 00:55:00 18.3 C 13.13 g/m*3 18.3 C 0 km/h
877 10-07-2020 01:00:00 18.2 C 13.21 g/m*3 18.2 C 0 km/h
878 10-07-2020 01:05:00 18.1 C 13.13 g/m*3 18.1 C 0 km/h
879 10-07-2020 01:10:00 18 C 13.06 g/m*3 18 C 0 km/h
880 10-07-2020 01:15:00 17.9 C 12.98 g/m*3 17.9 C 0 km/h
881 10-07-2020 01:20:00 17.9 C 12.98 g/m*3 17.9 C 0 km/h
882 10-07-2020 01:25:00 17.9 C 12.98 g/m*3 17.9 C 0 km/h
883 10-07-2020 01:30:00 17.8 C 13.05 g/m*3 17.8 C 0 km/h
884 10-07-2020 01:35:00 17.8 C 13.05 g/m*3 17.8 C 0 km/h
885 10-07-2020 01:40:00 17.7 C 12.98 g/m*3 17.7 C 0 km/h
886 10-07-2020 01:45:00 17.6 C 12.9 g/m*3 17.6 C 0 km/h
887 10-07-2020 01:50:00 17.5 C 12.82 g/m*3 17.5 C 0 km/h
888 10-07-2020 01:55:00 17.4 C 12.75 g/m*3 17.4 C 0 km/h
889 10-07-2020 02:00:00 17.3 C 12.67 g/m*3 17.3 C 0 km/h
890 10-07-2020 02:05:00 17.2 C 12.74 g/m*3 17.2 C 0 km/h
891 10-07-2020 02:10:00 17.2 C 12.74 g/m*3 17.2 C 0 km/h
892 10-07-2020 02:15:00 17.1 C 12.81 g/m*3 17.1 C 0 km/h
893 10-07-2020 02:20:00 17.1 C 12.81 g/m*3 17.1 C 0 km/h
894 10-07-2020 02:25:00 17 C 12.73 g/m*3 17 C 0 km/h
895 10-07-2020 02:30:00 16.9 C 12.66 g/m*3 16.9 C 0 km/h
896 10-07-2020 02:35:00 16.9 C 12.66 g/m*3 16.9 C 0 km/h
897 10-07-2020 02:40:00 16.8 C 12.58 g/m*3 16.8 C 0 km/h
898 10-07-2020 02:45:00 16.7 C 12.51 g/m*3 16.7 C 0 km/h
899 10-07-2020 02:50:00 16.7 C 12.65 g/m*3 16.7 C 0 km/h
900 10-07-2020 02:55:00 16.7 C 12.65 g/m*3 16.7 C 0 km/h
Sensor: Nr:Datum:Temp:Abs-Feuchte:Windchill:Wind:
Aussen-T/F 901 10-07-2020 03:00:00 16.7 C 12.65 g/m*3 16.7 C 0 km/h
902 10-07-2020 03:05:00 16.7 C 12.65 g/m*3 16.7 C 0 km/h
903 10-07-2020 03:10:00 16.6 C 12.57 g/m*3 16.6 C 0 km/h
904 10-07-2020 03:15:00 16.6 C 12.57 g/m*3 16.6 C 0 km/h
905 10-07-2020 03:20:00 16.7 C 12.65 g/m*3 16.7 C 0 km/h
906 10-07-2020 03:25:00 16.7 C 12.65 g/m*3 16.7 C 0 km/h
907 10-07-2020 03:30:00 16.6 C 12.57 g/m*3 16.6 C 0 km/h
908 10-07-2020 03:35:00 16.6 C 12.57 g/m*3 16.6 C 0 km/h
909 10-07-2020 03:40:00 16.6 C 12.57 g/m*3 16.6 C 0 km/h
910 10-07-2020 03:45:00 16.6 C 12.57 g/m*3 16.6 C 0 km/h
911 10-07-2020 03:50:00 16.5 C 12.5 g/m*3 16.5 C 0 km/h
912 10-07-2020 03:55:00 16.5 C 12.5 g/m*3 16.5 C 0 km/h
913 10-07-2020 04:00:00 16.4 C 12.42 g/m*3 16.4 C 0 km/h
914 10-07-2020 04:05:00 16.4 C 12.42 g/m*3 16.4 C 0 km/h
915 10-07-2020 04:10:00 16.3 C 12.35 g/m*3 16.3 C 0 km/h
916 10-07-2020 04:15:00 16.3 C 12.49 g/m*3 16.3 C 0 km/h
917 10-07-2020 04:20:00 16.2 C 12.41 g/m*3 16.2 C 0 km/h
918 10-07-2020 04:25:00 16.1 C 12.34 g/m*3 16.1 C 0 km/h
919 10-07-2020 04:30:00 16.1 C 12.34 g/m*3 16.1 C 0 km/h
920 10-07-2020 04:35:00 16.1 C 12.34 g/m*3 16.1 C 0 km/h
921 10-07-2020 04:40:00 16.1 C 12.47 g/m*3 16.1 C 0 km/h
922 10-07-2020 04:45:00 16.1 C 12.47 g/m*3 16.1 C 0 km/h
923 10-07-2020 04:50:00 16.1 C 12.47 g/m*3 16.1 C 0 km/h
924 10-07-2020 04:55:00 16.2 C 12.55 g/m*3 16.2 C 0 km/h
925 10-07-2020 05:00:00 16.2 C 12.55 g/m*3 16.2 C 0 km/h
Sensor: Nr:Datum:Temp:Abs-Feuchte:Windchill:Wind:
Aussen-T/F 926 10-07-2020 05:05:00 16.2 C 12.55 g/m*3 16.2 C 0 km/h
927 10-07-2020 05:10:00 16.1 C 12.47 g/m*3 16.1 C 0 km/h
928 10-07-2020 05:15:00 16.1 C 12.47 g/m*3 16.1 C 0 km/h
929 10-07-2020 05:20:00 16.1 C 12.47 g/m*3 16.1 C 0 km/h
930 10-07-2020 05:25:00 16.1 C 12.47 g/m*3 16.1 C 0 km/h
931 10-07-2020 05:30:00 16.1 C 12.47 g/m*3 16.1 C 0 km/h
932 10-07-2020 05:35:00 16.1 C 12.47 g/m*3 16.1 C 8.1 km/h
933 10-07-2020 05:40:00 16.2 C 12.41 g/m*3 16.2 C 0 km/h
934 10-07-2020 05:45:00 16.2 C 12.41 g/m*3 16.2 C 0 km/h
935 10-07-2020 05:50:00 16.2 C 12.41 g/m*3 16.2 C 0 km/h
936 10-07-2020 05:55:00 16.2 C 12.41 g/m*3 16.2 C 6.4 km/h
937 10-07-2020 06:00:00 16.2 C 12.41 g/m*3 16.2 C 9.7 km/h
938 10-07-2020 06:05:00 16.2 C 12.41 g/m*3 16.2 C 0 km/h
939 10-07-2020 06:10:00 16.2 C 12.41 g/m*3 16.2 C 0 km/h
940 10-07-2020 06:15:00 16.2 C 12.41 g/m*3 16.2 C 0 km/h
941 10-07-2020 06:20:00 16.2 C 12.41 g/m*3 16.2 C 0 km/h
942 10-07-2020 06:25:00 16.3 C 12.62 g/m*3 16.3 C 0 km/h
943 10-07-2020 06:30:00 16.3 C 12.62 g/m*3 16.3 C 0 km/h
944 10-07-2020 06:35:00 16.4 C 12.7 g/m*3 16.4 C 0 km/h
945 10-07-2020 06:40:00 16.4 C 12.7 g/m*3 16.4 C 0 km/h
946 10-07-2020 06:45:00 16.5 C 12.64 g/m*3 16.5 C 0 km/h
947 10-07-2020 06:50:00 16.5 C 12.64 g/m*3 16.5 C 3.2 km/h
948 10-07-2020 06:55:00 16.6 C 12.57 g/m*3 16.6 C 0 km/h
949 10-07-2020 07:00:00 16.7 C 12.65 g/m*3 16.7 C 0 km/h
950 10-07-2020 07:05:00 16.7 C 12.65 g/m*3 16.7 C 0 km/h
Sensor: Nr:Datum:Temp:Abs-Feuchte:Windchill:Wind:
Aussen-T/F 951 10-07-2020 07:10:00 16.8 C 12.72 g/m*3 16.8 C 4.8 km/h
952 10-07-2020 07:15:00 17 C 12.73 g/m*3 17 C 3.2 km/h
953 10-07-2020 07:20:00 17.2 C 12.89 g/m*3 17.2 C 3.2 km/h
954 10-07-2020 07:25:00 17.3 C 12.96 g/m*3 17.3 C 0 km/h
955 10-07-2020 07:30:00 17.4 C 12.89 g/m*3 17.4 C 0 km/h
956 10-07-2020 07:35:00 17.6 C 13.05 g/m*3 17.6 C 6.4 km/h
957 10-07-2020 07:40:00 17.7 C 12.98 g/m*3 17.7 C 4.8 km/h
958 10-07-2020 07:45:00 17.9 C 13.13 g/m*3 17.9 C 0 km/h
959 10-07-2020 07:50:00 18.1 C 13.13 g/m*3 18.1 C 3.2 km/h
960 10-07-2020 07:55:00 18.2 C 13.21 g/m*3 18.2 C 3.2 km/h
961 10-07-2020 08:00:00 18.4 C 13.37 g/m*3 18.4 C 0 km/h
962 10-07-2020 08:05:00 18.5 C 13.29 g/m*3 18.5 C 0 km/h
963 10-07-2020 08:10:00 18.6 C 13.37 g/m*3 18.6 C 3.2 km/h
964 10-07-2020 08:15:00 18.7 C 13.45 g/m*3 18.7 C 0 km/h
965 10-07-2020 08:20:00 18.8 C 13.37 g/m*3 18.8 C 3.2 km/h
966 10-07-2020 08:25:00 19 C 13.69 g/m*3 19 C 4.8 km/h
967 10-07-2020 08:30:00 19.2 C 13.52 g/m*3 19.2 C 4.8 km/h
968 10-07-2020 08:35:00 19.4 C 13.68 g/m*3 19.4 C 8.1 km/h
969 10-07-2020 08:40:00 19.6 C 13.51 g/m*3 19.6 C 4.8 km/h
970 10-07-2020 08:45:00 19.8 C 13.32 g/m*3 19.8 C 8.1 km/h
971 10-07-2020 08:50:00 20.1 C 13.39 g/m*3 20.1 C 9.7 km/h
972 10-07-2020 08:55:00 20.2 C 13.46 g/m*3 20.2 C 19.3 km/h
973 10-07-2020 09:00:00 20.3 C 13.37 g/m*3 20.3 C 11.3 km/h
974 10-07-2020 09:05:00 20.3 C 13.37 g/m*3 20.3 C 9.7 km/h
975 10-07-2020 09:10:00 20.3 C 13.19 g/m*3 20.3 C 14.5 km/h
Sensor: Nr:Datum:Temp:Abs-Feuchte:Windchill:Wind:
Aussen-T/F 976 10-07-2020 09:15:00 20.3 C 13.19 g/m*3 20.3 C 14.5 km/h
977 10-07-2020 09:20:00 20.3 C 13.37 g/m*3 20.3 C 12.9 km/h
978 10-07-2020 09:25:00 20.3 C 13.37 g/m*3 20.3 C 9.7 km/h
979 10-07-2020 09:30:00 20.3 C 13.37 g/m*3 20.3 C 14.5 km/h
980 10-07-2020 09:35:00 20.2 C 13.46 g/m*3 20.2 C 9.7 km/h
981 10-07-2020 09:40:00 20.2 C 13.46 g/m*3 20.2 C 11.3 km/h
982 10-07-2020 09:45:00 20.2 C 13.29 g/m*3 20.2 C 9.7 km/h
983 10-07-2020 09:50:00 20.2 C 13.29 g/m*3 20.2 C 14.5 km/h
984 10-07-2020 09:55:00 20.3 C 13.19 g/m*3 20.3 C 14.5 km/h
985 10-07-2020 10:00:00 20.4 C 13.27 g/m*3 20.4 C 9.7 km/h
986 10-07-2020 10:05:00 20.4 C 13.27 g/m*3 20.4 C 16.1 km/h
987 10-07-2020 10:10:00 20.4 C 13.27 g/m*3 20.4 C 11.3 km/h
988 10-07-2020 10:15:00 20.4 C 12.91 g/m*3 20.4 C 17.7 km/h
989 10-07-2020 10:20:00 20.6 C 12.89 g/m*3 20.6 C 12.9 km/h
990 10-07-2020 10:25:00 20.7 C 12.78 g/m*3 20.7 C 16.1 km/h
991 10-07-2020 10:30:00 20.8 C 12.86 g/m*3 20.8 C 16.1 km/h
992 10-07-2020 10:35:00 20.8 C 12.49 g/m*3 20.8 C 19.3 km/h
993 10-07-2020 10:40:00 20.8 C 12.86 g/m*3 20.8 C 17.7 km/h
994 10-07-2020 10:45:00 20.9 C 12.93 g/m*3 20.9 C 16.1 km/h
995 10-07-2020 10:50:00 21 C 13.01 g/m*3 21 C 12.9 km/h
996 10-07-2020 10:55:00 21.1 C 13.08 g/m*3 21.1 C 12.9 km/h
997 10-07-2020 11:00:00 21.2 C 13.16 g/m*3 21.2 C 14.5 km/h
998 10-07-2020 11:05:00 21.2 C 12.79 g/m*3 21.2 C 14.5 km/h
999 10-07-2020 11:10:00 21.3 C 12.86 g/m*3 21.3 C 14.5 km/h
1000 10-07-2020 11:15:00 21.3 C 12.68 g/m*3 21.3 C 17.7 km/h
Sensor: Nr:Datum:Temp:Abs-Feuchte:Windchill:Wind:
Aussen-T/F 1001 10-07-2020 11:20:00 21.2 C 12.79 g/m*3 21.2 C 17.7 km/h
1002 10-07-2020 11:25:00 21.3 C 12.86 g/m*3 21.3 C 14.5 km/h
1003 10-07-2020 11:30:00 21.3 C 12.68 g/m*3 21.3 C 17.7 km/h
1004 10-07-2020 11:35:00 21.4 C 12.94 g/m*3 21.4 C 11.3 km/h
1005 10-07-2020 11:40:00 21.6 C 12.52 g/m*3 21.6 C 17.7 km/h
1006 10-07-2020 11:45:00 21.6 C 12.52 g/m*3 21.6 C 22.5 km/h
1007 10-07-2020 11:50:00 21.8 C 12.66 g/m*3 21.8 C 22.5 km/h
1008 10-07-2020 11:55:00 21.9 C 12.35 g/m*3 21.9 C 20.9 km/h
1009 10-07-2020 12:00:00 21.9 C 12.35 g/m*3 21.9 C 17.7 km/h
1010 10-07-2020 12:05:00 22.1 C 12.69 g/m*3 22.1 C 17.7 km/h
1011 10-07-2020 12:10:00 22.2 C 12.96 g/m*3 22.2 C 16.1 km/h
1012 10-07-2020 12:15:00 22.1 C 12.88 g/m*3 22.1 C 17.7 km/h
1013 10-07-2020 12:20:00 21.9 C 12.74 g/m*3 21.9 C 14.5 km/h
1014 10-07-2020 12:25:00 21.9 C 12.54 g/m*3 21.9 C 11.3 km/h
1015 10-07-2020 12:30:00 21.9 C 12.54 g/m*3 21.9 C 14.5 km/h
1016 10-07-2020 12:35:00 21.9 C 12.54 g/m*3 21.9 C 19.3 km/h
1017 10-07-2020 12:40:00 21.9 C 12.35 g/m*3 21.9 C 16.1 km/h
1018 10-07-2020 12:45:00 22 C 12.42 g/m*3 22 C 16.1 km/h
1019 10-07-2020 12:50:00 22.1 C 12.49 g/m*3 22.1 C 12.9 km/h
1020 10-07-2020 12:55:00 21.9 C 12.35 g/m*3 21.9 C 19.3 km/h
1021 10-07-2020 13:00:00 21.8 C 12.47 g/m*3 21.8 C 17.7 km/h
1022 10-07-2020 13:05:00 21.8 C 12.28 g/m*3 21.8 C 16.1 km/h
1023 10-07-2020 13:10:00 21.9 C 12.35 g/m*3 21.9 C 11.3 km/h
1024 10-07-2020 13:15:00 21.9 C 12.35 g/m*3 21.9 C 19.3 km/h
1025 10-07-2020 13:20:00 21.6 C 12.33 g/m*3 21.6 C 22.5 km/h
Sensor: Nr:Datum:Temp:Abs-Feuchte:Windchill:Wind:
Aussen-T/F 1026 10-07-2020 13:25:00 21.2 C 11.86 g/m*3 21.2 C 16.1 km/h
1027 10-07-2020 13:30:00 20.9 C 12.2 g/m*3 20.9 C 12.9 km/h
1028 10-07-2020 13:35:00 20.8 C 11.95 g/m*3 20.8 C 17.7 km/h
1029 10-07-2020 13:40:00 20.8 C 11.95 g/m*3 20.8 C 16.1 km/h
1030 10-07-2020 13:45:00 20.8 C 11.95 g/m*3 20.8 C 14.5 km/h
1031 10-07-2020 13:50:00 20.8 C 12.13 g/m*3 20.8 C 16.1 km/h
1032 10-07-2020 13:55:00 20.8 C 11.95 g/m*3 20.8 C 17.7 km/h
1033 10-07-2020 14:00:00 20.8 C 12.13 g/m*3 20.8 C 11.3 km/h
1034 10-07-2020 14:05:00 20.9 C 12.57 g/m*3 20.9 C 6.4 km/h
1035 10-07-2020 14:10:00 21.2 C 12.23 g/m*3 21.2 C 20.9 km/h
1036 10-07-2020 14:15:00 21.2 C 12.23 g/m*3 21.2 C 19.3 km/h
1037 10-07-2020 14:20:00 21.2 C 12.23 g/m*3 21.2 C 14.5 km/h
1038 10-07-2020 14:25:00 21.1 C 11.98 g/m*3 21.1 C 14.5 km/h
1039 10-07-2020 14:30:00 20.9 C 12.02 g/m*3 20.9 C 25.7 km/h
1040 10-07-2020 14:35:00 20.9 C 12.02 g/m*3 20.9 C 9.7 km/h
1041 10-07-2020 14:40:00 20.9 C 12.02 g/m*3 20.9 C 12.9 km/h
1042 10-07-2020 14:45:00 20.8 C 11.77 g/m*3 20.8 C 16.1 km/h
1043 10-07-2020 14:50:00 20.8 C 11.95 g/m*3 20.8 C 17.7 km/h
1044 10-07-2020 14:55:00 20.8 C 11.95 g/m*3 20.8 C 12.9 km/h
1045 10-07-2020 15:00:00 20.8 C 11.95 g/m*3 20.8 C 16.1 km/h
1046 10-07-2020 15:05:00 20.7 C 12.06 g/m*3 20.7 C 14.5 km/h
1047 10-07-2020 15:10:00 20.7 C 12.42 g/m*3 20.7 C 11.3 km/h
1048 10-07-2020 15:15:00 20.2 C 12.76 g/m*3 20.2 C 14.5 km/h
1049 10-07-2020 15:20:00 19.5 C 13.09 g/m*3 19.5 C 11.3 km/h
1050 10-07-2020 15:25:00 19 C 13.2 g/m*3 19 C 6.4 km/h
Sensor: Nr:Datum:Temp:Abs-Feuchte:Windchill:Wind:
Aussen-T/F 1051 10-07-2020 15:30:00 18.7 C 13.29 g/m*3 18.7 C 9.7 km/h
1052 10-07-2020 15:35:00 18.4 C 13.53 g/m*3 18.4 C 8.1 km/h
1053 10-07-2020 15:40:00 18.4 C 13.68 g/m*3 18.4 C 8.1 km/h
1054 10-07-2020 15:45:00 18.4 C 14 g/m*3 18.4 C 6.4 km/h
1055 10-07-2020 15:50:00 18.4 C 13.68 g/m*3 18.4 C 9.7 km/h
1056 10-07-2020 15:55:00 18.4 C 13.84 g/m*3 18.4 C 4.8 km/h
1057 10-07-2020 16:00:00 18.4 C 13.84 g/m*3 18.4 C 0 km/h
1058 10-07-2020 16:05:00 18.4 C 13.84 g/m*3 18.4 C 0 km/h
1059 10-07-2020 16:10:00 18.5 C 14.08 g/m*3 18.5 C 4.8 km/h
1060 10-07-2020 16:15:00 18.6 C 14.32 g/m*3 18.6 C 4.8 km/h
1061 10-07-2020 16:20:00 18.7 C 14.41 g/m*3 18.7 C 8.1 km/h
1062 10-07-2020 16:25:00 18.6 C 14.32 g/m*3 18.6 C 4.8 km/h
1063 10-07-2020 16:30:00 18.5 C 14.08 g/m*3 18.5 C 8.1 km/h
1064 10-07-2020 16:35:00 18.3 C 13.92 g/m*3 18.3 C 6.4 km/h
1065 10-07-2020 16:40:00 18.2 C 13.83 g/m*3 18.2 C 8.1 km/h
1066 10-07-2020 16:45:00 18.1 C 13.75 g/m*3 18.1 C 6.4 km/h
1067 10-07-2020 16:50:00 17.9 C 13.59 g/m*3 17.9 C 8.1 km/h
1068 10-07-2020 16:55:00 17.8 C 13.66 g/m*3 17.8 C 9.7 km/h
1069 10-07-2020 17:00:00 17.7 C 13.58 g/m*3 17.7 C 8.1 km/h
1070 10-07-2020 17:05:00 17.6 C 13.65 g/m*3 17.6 C 6.4 km/h
1071 10-07-2020 17:10:00 17.6 C 13.65 g/m*3 17.6 C 6.4 km/h
1072 10-07-2020 17:15:00 17.7 C 13.88 g/m*3 17.7 C 11.3 km/h
1073 10-07-2020 17:20:00 17.8 C 13.96 g/m*3 17.8 C 9.7 km/h
1074 10-07-2020 17:25:00 17.9 C 14.05 g/m*3 17.9 C 6.4 km/h
1075 10-07-2020 17:30:00 18.2 C 14.46 g/m*3 18.2 C 4.8 km/h
Sensor: Nr:Datum:Temp:Abs-Feuchte:Windchill:Wind:
Aussen-T/F 1076 10-07-2020 17:35:00 18.4 C 14.63 g/m*3 18.4 C 4.8 km/h
1077 10-07-2020 17:40:00 18.8 C 15.14 g/m*3 18.8 C 3.2 km/h
1078 10-07-2020 17:45:00 18.9 C 15.07 g/m*3 18.9 C 1.6 km/h
1079 10-07-2020 17:50:00 19.2 C 15.17 g/m*3 19.2 C 3.2 km/h
1080 10-07-2020 17:55:00 19.3 C 14.6 g/m*3 19.3 C 4.8 km/h
1081 10-07-2020 18:00:00 19.7 C 13.58 g/m*3 19.7 C 6.4 km/h
1082 10-07-2020 18:05:00 20.1 C 13.04 g/m*3 20.1 C 11.3 km/h
1083 10-07-2020 18:10:00 20 C 12.27 g/m*3 20 C 19.3 km/h
1084 10-07-2020 18:15:00 19.3 C 11.78 g/m*3 19.3 C 20.9 km/h
1085 10-07-2020 18:20:00 18.8 C 11.76 g/m*3 18.8 C 19.3 km/h
1086 10-07-2020 18:25:00 18.6 C 11.46 g/m*3 18.6 C 16.1 km/h
1087 10-07-2020 18:30:00 18.5 C 11.55 g/m*3 18.5 C 16.1 km/h
1088 10-07-2020 18:35:00 18.6 C 11.78 g/m*3 18.6 C 12.9 km/h
1089 10-07-2020 18:40:00 18.8 C 11.92 g/m*3 18.8 C 11.3 km/h
1090 10-07-2020 18:45:00 19.3 C 12.11 g/m*3 19.3 C 9.7 km/h
1091 10-07-2020 18:50:00 19.8 C 12.13 g/m*3 19.8 C 12.9 km/h
1092 10-07-2020 18:55:00 20.1 C 12.17 g/m*3 20.1 C 17.7 km/h
1093 10-07-2020 19:00:00 20.4 C 12.03 g/m*3 20.4 C 16.1 km/h
1094 10-07-2020 19:05:00 20.3 C 11.78 g/m*3 20.3 C 14.5 km/h
1095 10-07-2020 19:10:00 19.9 C 11.68 g/m*3 19.9 C 14.5 km/h
1096 10-07-2020 19:15:00 20.1 C 11.82 g/m*3 20.1 C 11.3 km/h
1097 10-07-2020 19:20:00 20.1 C 11.47 g/m*3 20.1 C 16.1 km/h
1098 10-07-2020 19:25:00 20.1 C 11.65 g/m*3 20.1 C 12.9 km/h
1099 10-07-2020 19:30:00 19.8 C 11.44 g/m*3 19.8 C 16.1 km/h
1100 10-07-2020 19:35:00 19.4 C 11.51 g/m*3 19.4 C 14.5 km/h
Sensor: Nr:Datum:Temp:Abs-Feuchte:Windchill:Wind:
Aussen-T/F 1101 10-07-2020 19:40:00 19.2 C 11.71 g/m*3 19.2 C 12.9 km/h
1102 10-07-2020 19:45:00 19 C 11.57 g/m*3 19 C 12.9 km/h
1103 10-07-2020 19:50:00 18.8 C 11.43 g/m*3 18.8 C 16.1 km/h
1104 10-07-2020 19:55:00 18.8 C 11.6 g/m*3 18.8 C 8.1 km/h
1105 10-07-2020 20:00:00 18.8 C 11.6 g/m*3 18.8 C 11.3 km/h
1106 10-07-2020 20:05:00 19 C 11.41 g/m*3 19 C 14.5 km/h
1107 10-07-2020 20:10:00 19.1 C 11.47 g/m*3 19.1 C 6.4 km/h
1108 10-07-2020 20:15:00 19 C 11.57 g/m*3 19 C 11.3 km/h
1109 10-07-2020 20:20:00 18.8 C 11.6 g/m*3 18.8 C 16.1 km/h
1110 10-07-2020 20:25:00 18.6 C 11.3 g/m*3 18.6 C 14.5 km/h
1111 10-07-2020 20:30:00 18.4 C 11.32 g/m*3 18.4 C 11.3 km/h
1112 10-07-2020 20:35:00 18.3 C 11.41 g/m*3 18.3 C 11.3 km/h
1113 10-07-2020 20:40:00 18.3 C 11.1 g/m*3 18.3 C 16.1 km/h
1114 10-07-2020 20:45:00 18.3 C 11.1 g/m*3 18.3 C 8.1 km/h
1115 10-07-2020 20:50:00 18.2 C 10.88 g/m*3 18.2 C 12.9 km/h
1116 10-07-2020 20:55:00 18.2 C 10.88 g/m*3 18.2 C 8.1 km/h
1117 10-07-2020 21:00:00 18.1 C 10.82 g/m*3 18.1 C 6.4 km/h
1118 10-07-2020 21:05:00 17.9 C 10.84 g/m*3 17.9 C 8.1 km/h
1119 10-07-2020 21:10:00 17.9 C 10.84 g/m*3 17.9 C 4.8 km/h
1120 10-07-2020 21:15:00 17.8 C 10.62 g/m*3 17.8 C 3.2 km/h
1121 10-07-2020 21:20:00 17.8 C 10.78 g/m*3 17.8 C 6.4 km/h
1122 10-07-2020 21:25:00 17.8 C 10.78 g/m*3 17.8 C 4.8 km/h
1123 10-07-2020 21:30:00 17.7 C 10.71 g/m*3 17.7 C 4.8 km/h
1124 10-07-2020 21:35:00 17.7 C 10.86 g/m*3 17.7 C 3.2 km/h
1125 10-07-2020 21:40:00 17.6 C 10.65 g/m*3 17.6 C 4.8 km/h
Sensor: Nr:Datum:Temp:Abs-Feuchte:Windchill:Wind:
Aussen-T/F 1126 10-07-2020 21:45:00 17.6 C 10.65 g/m*3 17.6 C 4.8 km/h
1127 10-07-2020 21:50:00 17.6 C 10.8 g/m*3 17.6 C 4.8 km/h
1128 10-07-2020 21:55:00 17.5 C 10.73 g/m*3 17.5 C 1.6 km/h
1129 10-07-2020 22:00:00 17.4 C 10.82 g/m*3 17.4 C 6.4 km/h
1130 10-07-2020 22:05:00 17.4 C 10.82 g/m*3 17.4 C 6.4 km/h
1131 10-07-2020 22:10:00 17.3 C 10.61 g/m*3 17.3 C 6.4 km/h
1132 10-07-2020 22:15:00 17.3 C 10.61 g/m*3 17.3 C 8.1 km/h
1133 10-07-2020 22:20:00 17.2 C 10.54 g/m*3 17.2 C 6.4 km/h
1134 10-07-2020 22:25:00 17.2 C 10.54 g/m*3 17.2 C 4.8 km/h
1135 10-07-2020 22:30:00 17.2 C 10.54 g/m*3 17.2 C 6.4 km/h
1136 10-07-2020 22:35:00 17.1 C 10.48 g/m*3 17.1 C 4.8 km/h
1137 10-07-2020 22:40:00 17.1 C 10.48 g/m*3 17.1 C 1.6 km/h
1138 10-07-2020 22:45:00 17.1 C 10.48 g/m*3 17.1 C 1.6 km/h
1139 10-07-2020 22:50:00 17 C 10.71 g/m*3 17 C 0 km/h
1140 10-07-2020 22:55:00 16.9 C 10.5 g/m*3 16.9 C 1.6 km/h
1141 10-07-2020 23:00:00 16.9 C 10.64 g/m*3 16.9 C 1.6 km/h
1142 10-07-2020 23:05:00 16.8 C 10.58 g/m*3 16.8 C 0 km/h
1143 10-07-2020 23:10:00 16.8 C 10.44 g/m*3 16.8 C 0 km/h
1144 10-07-2020 23:15:00 16.7 C 10.37 g/m*3 16.7 C 4.8 km/h
1145 10-07-2020 23:20:00 16.7 C 10.52 g/m*3 16.7 C 0 km/h
1146 10-07-2020 23:25:00 16.7 C 10.37 g/m*3 16.7 C 4.8 km/h
1147 10-07-2020 23:30:00 16.6 C 10.31 g/m*3 16.6 C 4.8 km/h
1148 10-07-2020 23:35:00 16.6 C 10.31 g/m*3 16.6 C 1.6 km/h
1149 10-07-2020 23:40:00 16.6 C 10.45 g/m*3 16.6 C 1.6 km/h
1150 10-07-2020 23:45:00 16.5 C 10.39 g/m*3 16.5 C 1.6 km/h
Sensor: Nr:Datum:Temp:Abs-Feuchte:Windchill:Wind:
Aussen-T/F 1151 10-07-2020 23:50:00 16.4 C 10.47 g/m*3 16.4 C 0 km/h
1152 10-07-2020 23:55:00 16.3 C 10.41 g/m*3 16.3 C 1.6 km/h
1153 11-07-2020 00:00:00 16.3 C 10.54 g/m*3 16.3 C 1.6 km/h
1154 11-07-2020 00:05:00 16.2 C 10.48 g/m*3 16.2 C 0 km/h
1155 11-07-2020 00:10:00 16 C 10.49 g/m*3 16 C 1.6 km/h
1156 11-07-2020 00:15:00 15.9 C 10.56 g/m*3 15.9 C 0 km/h
1157 11-07-2020 00:20:00 15.7 C 10.44 g/m*3 15.7 C 0 km/h
1158 11-07-2020 00:25:00 15.6 C 10.51 g/m*3 15.6 C 0 km/h
1159 11-07-2020 00:30:00 15.5 C 10.44 g/m*3 15.5 C 1.6 km/h
1160 11-07-2020 00:35:00 15.4 C 10.51 g/m*3 15.4 C 1.6 km/h
1161 11-07-2020 00:40:00 15.2 C 10.38 g/m*3 15.2 C 0 km/h
1162 11-07-2020 00:45:00 15.2 C 10.38 g/m*3 15.2 C 0 km/h
1163 11-07-2020 00:50:00 15.1 C 10.45 g/m*3 15.1 C 1.6 km/h
1164 11-07-2020 00:55:00 14.9 C 10.2 g/m*3 14.9 C 3.2 km/h
1165 11-07-2020 01:00:00 14.8 C 10.26 g/m*3 14.8 C 3.2 km/h
1166 11-07-2020 01:05:00 14.6 C 10.14 g/m*3 14.6 C 3.2 km/h
1167 11-07-2020 01:10:00 14.6 C 10.14 g/m*3 14.6 C 1.6 km/h
1168 11-07-2020 01:15:00 14.5 C 10.2 g/m*3 14.5 C 1.6 km/h
1169 11-07-2020 01:20:00 14.4 C 10.14 g/m*3 14.4 C 1.6 km/h
1170 11-07-2020 01:25:00 14.3 C 10.07 g/m*3 14.3 C 1.6 km/h
1171 11-07-2020 01:30:00 14.3 C 10.07 g/m*3 14.3 C 4.8 km/h
1172 11-07-2020 01:35:00 14.3 C 10.07 g/m*3 14.3 C 1.6 km/h
1173 11-07-2020 01:40:00 14.3 C 10.07 g/m*3 14.3 C 1.6 km/h
1174 11-07-2020 01:45:00 14.1 C 9.95 g/m*3 14.1 C 3.2 km/h
1175 11-07-2020 01:50:00 13.8 C 9.89 g/m*3 13.8 C 1.6 km/h
Sensor: Nr:Datum:Temp:Abs-Feuchte:Windchill:Wind:
Aussen-T/F 1176 11-07-2020 01:55:00 13.6 C 9.77 g/m*3 13.6 C 4.8 km/h
1177 11-07-2020 02:00:00 13.4 C 9.76 g/m*3 13.4 C 4.8 km/h
1178 11-07-2020 02:05:00 13.3 C 9.82 g/m*3 13.3 C 3.2 km/h
1179 11-07-2020 02:10:00 13.1 C 9.7 g/m*3 13.1 C 3.2 km/h
1180 11-07-2020 02:15:00 12.9 C 9.69 g/m*3 12.9 C 3.2 km/h
1181 11-07-2020 02:20:00 12.8 C 9.63 g/m*3 12.8 C 3.2 km/h
1182 11-07-2020 02:25:00 12.7 C 9.68 g/m*3 12.7 C 3.2 km/h
1183 11-07-2020 02:30:00 12.6 C 9.62 g/m*3 12.6 C 3.2 km/h
1184 11-07-2020 02:35:00 12.5 C 9.68 g/m*3 12.5 C 0 km/h
1185 11-07-2020 02:40:00 12.4 C 9.62 g/m*3 12.4 C 4.8 km/h
1186 11-07-2020 02:45:00 12.4 C 9.62 g/m*3 12.4 C 0 km/h
1187 11-07-2020 02:50:00 12.3 C 9.66 g/m*3 12.3 C 0 km/h
1188 11-07-2020 02:55:00 12.3 C 9.66 g/m*3 12.3 C 1.6 km/h
1189 11-07-2020 03:00:00 12.2 C 9.6 g/m*3 12.2 C 1.6 km/h
1190 11-07-2020 03:05:00 12.1 C 9.54 g/m*3 12.1 C 3.2 km/h
1191 11-07-2020 03:10:00 12.1 C 9.65 g/m*3 12.1 C 6.4 km/h
1192 11-07-2020 03:15:00 12 C 9.59 g/m*3 12 C 3.2 km/h
1193 11-07-2020 03:20:00 11.9 C 9.53 g/m*3 11.9 C 4.8 km/h
1194 11-07-2020 03:25:00 11.9 C 9.53 g/m*3 11.9 C 6.4 km/h
1195 11-07-2020 03:30:00 11.8 C 9.47 g/m*3 11.8 C 3.2 km/h
1196 11-07-2020 03:35:00 11.8 C 9.58 g/m*3 11.8 C 0 km/h
1197 11-07-2020 03:40:00 11.7 C 9.52 g/m*3 11.7 C 4.8 km/h
1198 11-07-2020 03:45:00 11.7 C 9.52 g/m*3 11.7 C 1.6 km/h
1199 11-07-2020 03:50:00 11.7 C 9.52 g/m*3 11.7 C 1.6 km/h
1200 11-07-2020 03:55:00 11.7 C 9.52 g/m*3 11.7 C 0 km/h
Sensor: Nr:Datum:Temp:Abs-Feuchte:Windchill:Wind:
Aussen-T/F 1201 11-07-2020 04:00:00 11.6 C 9.46 g/m*3 11.6 C 0 km/h
1202 11-07-2020 04:05:00 11.5 C 9.4 g/m*3 11.5 C 0 km/h
1203 11-07-2020 04:10:00 11.4 C 9.34 g/m*3 11.4 C 0 km/h
1204 11-07-2020 04:15:00 11.4 C 9.34 g/m*3 11.4 C 0 km/h
1205 11-07-2020 04:20:00 11.3 C 9.28 g/m*3 11.3 C 0 km/h
1206 11-07-2020 04:25:00 11.3 C 9.28 g/m*3 11.3 C 0 km/h
1207 11-07-2020 04:30:00 11.2 C 9.22 g/m*3 11.2 C 0 km/h
1208 11-07-2020 04:35:00 11.1 C 9.17 g/m*3 11.1 C 0 km/h
1209 11-07-2020 04:40:00 11.1 C 9.17 g/m*3 11.1 C 0 km/h
1210 11-07-2020 04:45:00 10.9 C 9.15 g/m*3 10.9 C 0 km/h
1211 11-07-2020 04:50:00 10.9 C 9.15 g/m*3 10.9 C 0 km/h
1212 11-07-2020 04:55:00 10.8 C 9.09 g/m*3 10.8 C 0 km/h
1213 11-07-2020 05:00:00 10.8 C 9.09 g/m*3 10.8 C 0 km/h
1214 11-07-2020 05:05:00 10.7 C 9.04 g/m*3 10.7 C 0 km/h
1215 11-07-2020 05:10:00 10.6 C 8.98 g/m*3 10.6 C 0 km/h
1216 11-07-2020 05:15:00 10.6 C 8.98 g/m*3 10.6 C 0 km/h
1217 11-07-2020 05:20:00 10.5 C 8.92 g/m*3 10.5 C 0 km/h
1218 11-07-2020 05:25:00 10.4 C 8.87 g/m*3 10.4 C 0 km/h
1219 11-07-2020 05:30:00 10.4 C 8.96 g/m*3 10.4 C 0 km/h
1220 11-07-2020 05:35:00 10.3 C 8.91 g/m*3 10.3 C 0 km/h
1221 11-07-2020 05:40:00 10.3 C 8.91 g/m*3 10.3 C 0 km/h
1222 11-07-2020 05:45:00 10.3 C 8.91 g/m*3 10.3 C 0 km/h
1223 11-07-2020 05:50:00 10.3 C 8.91 g/m*3 10.3 C 0 km/h
1224 11-07-2020 05:55:00 10.2 C 8.85 g/m*3 10.2 C 3.2 km/h
1225 11-07-2020 06:00:00 10.3 C 8.91 g/m*3 10.3 C 0 km/h
Sensor: Nr:Datum:Temp:Abs-Feuchte:Windchill:Wind:
Aussen-T/F 1226 11-07-2020 06:05:00 10.3 C 9 g/m*3 10.3 C 0 km/h
1227 11-07-2020 06:10:00 10.3 C 9 g/m*3 10.3 C 0 km/h
1228 11-07-2020 06:15:00 10.4 C 9.06 g/m*3 10.4 C 0 km/h
1229 11-07-2020 06:20:00 10.4 C 9.06 g/m*3 10.4 C 0 km/h
1230 11-07-2020 06:25:00 10.4 C 9.06 g/m*3 10.4 C 0 km/h
1231 11-07-2020 06:30:00 10.4 C 9.06 g/m*3 10.4 C 0 km/h
1232 11-07-2020 06:35:00 10.4 C 9.06 g/m*3 10.4 C 0 km/h
1233 11-07-2020 06:40:00 10.4 C 9.06 g/m*3 10.4 C 0 km/h
1234 11-07-2020 06:45:00 10.5 C 9.12 g/m*3 10.5 C 0 km/h
1235 11-07-2020 06:50:00 10.6 C 9.17 g/m*3 10.6 C 0 km/h
1236 11-07-2020 06:55:00 10.6 C 9.17 g/m*3 10.6 C 0 km/h
1237 11-07-2020 07:00:00 10.7 C 9.33 g/m*3 10.7 C 0 km/h
1238 11-07-2020 07:05:00 10.7 C 9.33 g/m*3 10.7 C 0 km/h
1239 11-07-2020 07:10:00 10.8 C 9.39 g/m*3 10.8 C 0 km/h
1240 11-07-2020 07:15:00 10.8 C 9.39 g/m*3 10.8 C 0 km/h
1241 11-07-2020 07:20:00 10.9 C 9.45 g/m*3 10.9 C 0 km/h
1242 11-07-2020 07:25:00 10.9 C 9.45 g/m*3 10.9 C 0 km/h
1243 11-07-2020 07:30:00 11 C 9.51 g/m*3 11 C 0 km/h
1244 11-07-2020 07:35:00 11.1 C 9.57 g/m*3 11.1 C 0 km/h
1245 11-07-2020 07:40:00 11.3 C 9.69 g/m*3 11.3 C 0 km/h
1246 11-07-2020 07:45:00 11.4 C 9.75 g/m*3 11.4 C 0 km/h
1247 11-07-2020 07:50:00 11.7 C 10.04 g/m*3 11.7 C 0 km/h
1248 11-07-2020 07:55:00 12 C 10.23 g/m*3 12 C 0 km/h
1249 11-07-2020 08:00:00 12.3 C 10.42 g/m*3 12.3 C 1.6 km/h
1250 11-07-2020 08:05:00 12.5 C 10.44 g/m*3 12.5 C 0 km/h
Sensor: Nr:Datum:Temp:Abs-Feuchte:Windchill:Wind:
Aussen-T/F 1251 11-07-2020 08:10:00 12.7 C 10.46 g/m*3 12.7 C 4.8 km/h
1252 11-07-2020 08:15:00 13 C 10.55 g/m*3 13 C 6.4 km/h
1253 11-07-2020 08:20:00 13.3 C 10.63 g/m*3 13.3 C 1.6 km/h
1254 11-07-2020 08:25:00 13.5 C 10.53 g/m*3 13.5 C 0 km/h
1255 11-07-2020 08:30:00 13.7 C 10.54 g/m*3 13.7 C 6.4 km/h
1256 11-07-2020 08:35:00 13.9 C 10.43 g/m*3 13.9 C 3.2 km/h
1257 11-07-2020 08:40:00 14.1 C 10.44 g/m*3 14.1 C 3.2 km/h
1258 11-07-2020 08:45:00 14.3 C 10.57 g/m*3 14.3 C 4.8 km/h
1259 11-07-2020 08:50:00 14.4 C 10.51 g/m*3 14.4 C 3.2 km/h
1260 11-07-2020 08:55:00 14.5 C 10.57 g/m*3 14.5 C 3.2 km/h
1261 11-07-2020 09:00:00 14.7 C 10.58 g/m*3 14.7 C 3.2 km/h
1262 11-07-2020 09:05:00 14.8 C 10.64 g/m*3 14.8 C 0 km/h
1263 11-07-2020 09:10:00 15 C 10.64 g/m*3 15 C 0 km/h
1264 11-07-2020 09:15:00 15.2 C 10.38 g/m*3 15.2 C 6.4 km/h
1265 11-07-2020 09:20:00 15.3 C 10.19 g/m*3 15.3 C 8.1 km/h
1266 11-07-2020 09:25:00 15.4 C 9.85 g/m*3 15.4 C 8.1 km/h
1267 11-07-2020 09:30:00 15.4 C 9.85 g/m*3 15.4 C 6.4 km/h
1268 11-07-2020 09:35:00 15.6 C 9.71 g/m*3 15.6 C 9.7 km/h
1269 11-07-2020 09:40:00 15.7 C 9.77 g/m*3 15.7 C 8.1 km/h
1270 11-07-2020 09:45:00 15.8 C 9.83 g/m*3 15.8 C 6.4 km/h
1271 11-07-2020 09:50:00 15.8 C 9.83 g/m*3 15.8 C 3.2 km/h
1272 11-07-2020 09:55:00 15.9 C 9.75 g/m*3 15.9 C 1.6 km/h
1273 11-07-2020 10:00:00 16 C 9.54 g/m*3 16 C 4.8 km/h
1274 11-07-2020 10:05:00 16.1 C 9.73 g/m*3 16.1 C 9.7 km/h
1275 11-07-2020 10:10:00 16.2 C 9.52 g/m*3 16.2 C 8.1 km/h
Sensor: Nr:Datum:Temp:Abs-Feuchte:Windchill:Wind:
Aussen-T/F 1276 11-07-2020 10:15:00 16.1 C 9.46 g/m*3 16.1 C 8.1 km/h
1277 11-07-2020 10:20:00 16.1 C 9.46 g/m*3 16.1 C 4.8 km/h
1278 11-07-2020 10:25:00 16.2 C 9.52 g/m*3 16.2 C 8.1 km/h
1279 11-07-2020 10:30:00 16.6 C 9.61 g/m*3 16.6 C 4.8 km/h
1280 11-07-2020 10:35:00 16.9 C 9.49 g/m*3 16.9 C 11.3 km/h
1281 11-07-2020 10:40:00 17.3 C 9.13 g/m*3 17.3 C 9.7 km/h
1282 11-07-2020 10:45:00 17.3 C 9.13 g/m*3 17.3 C 1.6 km/h
1283 11-07-2020 10:50:00 17.2 C 9.08 g/m*3 17.2 C 4.8 km/h
1284 11-07-2020 10:55:00 17.2 C 9.23 g/m*3 17.2 C 4.8 km/h
1285 11-07-2020 11:00:00 17.2 C 9.08 g/m*3 17.2 C 0 km/h
1286 11-07-2020 11:05:00 17.4 C 9.34 g/m*3 17.4 C 6.4 km/h
1287 11-07-2020 11:10:00 17.8 C 9.11 g/m*3 17.8 C 12.9 km/h
1288 11-07-2020 11:15:00 18 C 9.22 g/m*3 18 C 8.1 km/h
1289 11-07-2020 11:20:00 17.9 C 9.16 g/m*3 17.9 C 8.1 km/h
1290 11-07-2020 11:25:00 17.8 C 8.95 g/m*3 17.8 C 4.8 km/h
1291 11-07-2020 11:30:00 17.6 C 9 g/m*3 17.6 C 6.4 km/h
1292 11-07-2020 11:35:00 17.5 C 9.09 g/m*3 17.5 C 6.4 km/h
1293 11-07-2020 11:40:00 17.6 C 8.7 g/m*3 17.6 C 3.2 km/h
1294 11-07-2020 11:45:00 17.8 C 8.65 g/m*3 17.8 C 4.8 km/h
1295 11-07-2020 11:50:00 18.1 C 8.81 g/m*3 18.1 C 12.9 km/h
1296 11-07-2020 11:55:00 18.3 C 8.6 g/m*3 18.3 C 8.1 km/h
1297 11-07-2020 12:00:00 18.4 C 8.49 g/m*3 18.4 C 9.7 km/h
1298 11-07-2020 12:05:00 18.4 C 8.65 g/m*3 18.4 C 11.3 km/h
1299 11-07-2020 12:10:00 18.4 C 8.65 g/m*3 18.4 C 12.9 km/h
1300 11-07-2020 12:15:00 18.3 C 8.76 g/m*3 18.3 C 8.1 km/h
Sensor: Nr:Datum:Temp:Abs-Feuchte:Windchill:Wind:
Aussen-T/F 1301 11-07-2020 12:20:00 18.1 C 8.81 g/m*3 18.1 C 11.3 km/h
1302 11-07-2020 12:25:00 18 C 9.06 g/m*3 18 C 11.3 km/h
1303 11-07-2020 12:30:00 18 C 8.91 g/m*3 18 C 6.4 km/h
1304 11-07-2020 12:35:00 18.2 C 9.01 g/m*3 18.2 C 3.2 km/h
1305 11-07-2020 12:40:00 18.5 C 8.7 g/m*3 18.5 C 9.7 km/h
1306 11-07-2020 12:45:00 18.8 C 8.86 g/m*3 18.8 C 14.5 km/h
1307 11-07-2020 12:50:00 18.8 C 8.86 g/m*3 18.8 C 6.4 km/h
1308 11-07-2020 12:55:00 18.9 C 8.91 g/m*3 18.9 C 8.1 km/h
1309 11-07-2020 13:00:00 18.9 C 8.59 g/m*3 18.9 C 8.1 km/h
1310 11-07-2020 13:05:00 18.9 C 8.75 g/m*3 18.9 C 4.8 km/h
1311 11-07-2020 13:10:00 19.1 C 8.69 g/m*3 19.1 C 9.7 km/h
1312 11-07-2020 13:15:00 19.2 C 8.74 g/m*3 19.2 C 6.4 km/h
1313 11-07-2020 13:20:00 19.2 C 8.9 g/m*3 19.2 C 12.9 km/h
1314 11-07-2020 13:25:00 19.1 C 9.02 g/m*3 19.1 C 9.7 km/h
1315 11-07-2020 13:30:00 18.9 C 8.75 g/m*3 18.9 C 8.1 km/h
1316 11-07-2020 13:35:00 18.9 C 8.59 g/m*3 18.9 C 8.1 km/h
1317 11-07-2020 13:40:00 19.1 C 8.52 g/m*3 19.1 C 11.3 km/h
1318 11-07-2020 13:45:00 19.3 C 8.29 g/m*3 19.3 C 9.7 km/h
1319 11-07-2020 13:50:00 19.3 C 8.46 g/m*3 19.3 C 8.1 km/h
1320 11-07-2020 13:55:00 19.4 C 8.34 g/m*3 19.4 C 6.4 km/h
1321 11-07-2020 14:00:00 19.7 C 8.49 g/m*3 19.7 C 14.5 km/h
1322 11-07-2020 14:05:00 19.8 C 8.88 g/m*3 19.8 C 16.1 km/h
1323 11-07-2020 14:10:00 19.6 C 8.78 g/m*3 19.6 C 16.1 km/h
1324 11-07-2020 14:15:00 19.6 C 8.61 g/m*3 19.6 C 11.3 km/h
1325 11-07-2020 14:20:00 19.7 C 8.66 g/m*3 19.7 C 12.9 km/h
Sensor: Nr:Datum:Temp:Abs-Feuchte:Windchill:Wind:
Aussen-T/F 1326 11-07-2020 14:25:00 19.8 C 8.71 g/m*3 19.8 C 11.3 km/h
1327 11-07-2020 14:30:00 19.8 C 8.2 g/m*3 19.8 C 11.3 km/h
1328 11-07-2020 14:35:00 19.7 C 8.15 g/m*3 19.7 C 11.3 km/h
1329 11-07-2020 14:40:00 19.8 C 8.37 g/m*3 19.8 C 8.1 km/h
1330 11-07-2020 14:45:00 19.8 C 8.54 g/m*3 19.8 C 8.1 km/h
1331 11-07-2020 14:50:00 19.8 C 8.03 g/m*3 19.8 C 4.8 km/h
1332 11-07-2020 14:55:00 20.2 C 8.74 g/m*3 20.2 C 8.1 km/h
1333 11-07-2020 15:00:00 20.4 C 7.96 g/m*3 20.4 C 6.4 km/h
1334 11-07-2020 15:05:00 20.5 C 8.01 g/m*3 20.5 C 16.1 km/h
1335 11-07-2020 15:10:00 20.7 C 7.92 g/m*3 20.7 C 14.5 km/h
1336 11-07-2020 15:15:00 20.8 C 7.79 g/m*3 20.8 C 14.5 km/h
1337 11-07-2020 15:20:00 20.8 C 7.79 g/m*3 20.8 C 6.4 km/h
1338 11-07-2020 15:25:00 21.1 C 7.92 g/m*3 21.1 C 11.3 km/h
1339 11-07-2020 15:30:00 21.4 C 8.06 g/m*3 21.4 C 9.7 km/h
1340 11-07-2020 15:35:00 21.4 C 8.06 g/m*3 21.4 C 12.9 km/h
1341 11-07-2020 15:40:00 21.4 C 8.25 g/m*3 21.4 C 11.3 km/h
1342 11-07-2020 15:45:00 21.7 C 8.01 g/m*3 21.7 C 14.5 km/h
1343 11-07-2020 15:50:00 22 C 7.76 g/m*3 22 C 6.4 km/h
1344 11-07-2020 15:55:00 22.2 C 7.85 g/m*3 22.2 C 11.3 km/h
1345 11-07-2020 16:00:00 22.4 C 7.75 g/m*3 22.4 C 12.9 km/h
1346 11-07-2020 16:05:00 22.8 C 7.92 g/m*3 22.8 C 11.3 km/h
1347 11-07-2020 16:10:00 23 C 8.43 g/m*3 23 C 9.7 km/h
1348 11-07-2020 16:15:00 22.7 C 8.28 g/m*3 22.7 C 12.9 km/h
1349 11-07-2020 16:20:00 22.1 C 7.81 g/m*3 22.1 C 12.9 km/h
1350 11-07-2020 16:25:00 21.7 C 8.2 g/m*3 21.7 C 8.1 km/h
Sensor: Nr:Datum:Temp:Abs-Feuchte:Windchill:Wind:
Aussen-T/F 1351 11-07-2020 16:30:00 21.6 C 7.97 g/m*3 21.6 C 8.1 km/h
1352 11-07-2020 16:35:00 21.4 C 7.87 g/m*3 21.4 C 12.9 km/h
1353 11-07-2020 16:40:00 21.2 C 7.78 g/m*3 21.2 C 12.9 km/h
1354 11-07-2020 16:45:00 21.3 C 7.64 g/m*3 21.3 C 8.1 km/h
1355 11-07-2020 16:50:00 22 C 7.38 g/m*3 22 C 11.3 km/h
1356 11-07-2020 16:55:00 22.4 C 7.15 g/m*3 22.4 C 9.7 km/h
1357 11-07-2020 17:00:00 22.4 C 7.75 g/m*3 22.4 C 8.1 km/h
1358 11-07-2020 17:05:00 22.7 C 7.88 g/m*3 22.7 C 6.4 km/h
1359 11-07-2020 17:10:00 23 C 8.02 g/m*3 23 C 6.4 km/h
1360 11-07-2020 17:15:00 22.8 C 8.13 g/m*3 22.8 C 9.7 km/h
1361 11-07-2020 17:20:00 22.5 C 8.19 g/m*3 22.5 C 6.4 km/h
1362 11-07-2020 17:25:00 22.4 C 8.14 g/m*3 22.4 C 11.3 km/h
1363 11-07-2020 17:30:00 22.5 C 8.39 g/m*3 22.5 C 11.3 km/h
1364 11-07-2020 17:35:00 22.6 C 7.83 g/m*3 22.6 C 9.7 km/h
1365 11-07-2020 17:40:00 22.1 C 7.81 g/m*3 22.1 C 6.4 km/h
1366 11-07-2020 17:45:00 21.8 C 7.87 g/m*3 21.8 C 3.2 km/h
1367 11-07-2020 17:50:00 21.8 C 7.67 g/m*3 21.8 C 9.7 km/h
1368 11-07-2020 17:55:00 22 C 7.76 g/m*3 22 C 8.1 km/h
1369 11-07-2020 18:00:00 22.2 C 7.85 g/m*3 22.2 C 12.9 km/h
1370 11-07-2020 18:05:00 21.8 C 7.67 g/m*3 21.8 C 11.3 km/h
1371 11-07-2020 18:10:00 21.8 C 8.06 g/m*3 21.8 C 11.3 km/h
1372 11-07-2020 18:15:00 22.4 C 7.94 g/m*3 22.4 C 6.4 km/h
1373 11-07-2020 18:20:00 22.6 C 7.63 g/m*3 22.6 C 9.7 km/h
1374 11-07-2020 18:25:00 22.2 C 7.85 g/m*3 22.2 C 9.7 km/h
1375 11-07-2020 18:30:00 21.7 C 7.63 g/m*3 21.7 C 11.3 km/h
Sensor: Nr:Datum:Temp:Abs-Feuchte:Windchill:Wind:
Aussen-T/F 1376 11-07-2020 18:35:00 21.6 C 7.78 g/m*3 21.6 C 6.4 km/h
1377 11-07-2020 18:40:00 21.6 C 7.78 g/m*3 21.6 C 4.8 km/h
1378 11-07-2020 18:45:00 21.9 C 7.91 g/m*3 21.9 C 6.4 km/h
1379 11-07-2020 18:50:00 22 C 7.96 g/m*3 22 C 4.8 km/h
1380 11-07-2020 18:55:00 22.1 C 8.2 g/m*3 22.1 C 6.4 km/h
1381 11-07-2020 19:00:00 22.3 C 8.1 g/m*3 22.3 C 8.1 km/h
1382 11-07-2020 19:05:00 22.3 C 8.1 g/m*3 22.3 C 11.3 km/h
1383 11-07-2020 19:10:00 22.2 C 8.05 g/m*3 22.2 C 6.4 km/h
1384 11-07-2020 19:15:00 22 C 7.96 g/m*3 22 C 8.1 km/h
1385 11-07-2020 19:20:00 21.8 C 8.06 g/m*3 21.8 C 6.4 km/h
1386 11-07-2020 19:25:00 21.8 C 7.87 g/m*3 21.8 C 9.7 km/h
1387 11-07-2020 19:30:00 21.6 C 7.97 g/m*3 21.6 C 6.4 km/h
1388 11-07-2020 19:35:00 21.7 C 8.01 g/m*3 21.7 C 9.7 km/h
1389 11-07-2020 19:40:00 21.7 C 8.01 g/m*3 21.7 C 9.7 km/h
1390 11-07-2020 19:45:00 21.7 C 8.01 g/m*3 21.7 C 8.1 km/h
1391 11-07-2020 19:50:00 21.8 C 8.06 g/m*3 21.8 C 6.4 km/h
1392 11-07-2020 19:55:00 21.7 C 8.2 g/m*3 21.7 C 6.4 km/h
1393 11-07-2020 20:00:00 21.7 C 7.82 g/m*3 21.7 C 6.4 km/h
1394 11-07-2020 20:05:00 21.8 C 7.67 g/m*3 21.8 C 8.1 km/h
1395 11-07-2020 20:10:00 21.7 C 7.82 g/m*3 21.7 C 6.4 km/h
1396 11-07-2020 20:15:00 21.7 C 8.01 g/m*3 21.7 C 6.4 km/h
1397 11-07-2020 20:20:00 21.6 C 7.78 g/m*3 21.6 C 4.8 km/h
1398 11-07-2020 20:25:00 21.4 C 7.87 g/m*3 21.4 C 6.4 km/h
1399 11-07-2020 20:30:00 21.2 C 7.97 g/m*3 21.2 C 6.4 km/h
1400 11-07-2020 20:35:00 21 C 8.24 g/m*3 21 C 9.7 km/h
Sensor: Nr:Datum:Temp:Abs-Feuchte:Windchill:Wind:
Aussen-T/F 1401 11-07-2020 20:40:00 20.8 C 8.33 g/m*3 20.8 C 8.1 km/h
1402 11-07-2020 20:45:00 20.6 C 8.23 g/m*3 20.6 C 14.5 km/h
1403 11-07-2020 20:50:00 20.2 C 8.92 g/m*3 20.2 C 11.3 km/h
1404 11-07-2020 20:55:00 19.8 C 9.05 g/m*3 19.8 C 11.3 km/h
1405 11-07-2020 21:00:00 19.3 C 9.29 g/m*3 19.3 C 9.7 km/h
1406 11-07-2020 21:05:00 18.9 C 9.23 g/m*3 18.9 C 12.9 km/h
1407 11-07-2020 21:10:00 18.6 C 9.39 g/m*3 18.6 C 8.1 km/h
1408 11-07-2020 21:15:00 18.3 C 9.38 g/m*3 18.3 C 9.7 km/h
1409 11-07-2020 21:20:00 18.1 C 9.43 g/m*3 18.1 C 8.1 km/h
1410 11-07-2020 21:25:00 17.9 C 9.47 g/m*3 17.9 C 8.1 km/h
1411 11-07-2020 21:30:00 17.7 C 9.51 g/m*3 17.7 C 4.8 km/h
1412 11-07-2020 21:35:00 17.6 C 9.45 g/m*3 17.6 C 8.1 km/h
1413 11-07-2020 21:40:00 17.4 C 9.63 g/m*3 17.4 C 1.6 km/h
1414 11-07-2020 21:45:00 17.3 C 9.43 g/m*3 17.3 C 6.4 km/h
1415 11-07-2020 21:50:00 17.1 C 9.46 g/m*3 17.1 C 4.8 km/h
1416 11-07-2020 21:55:00 17 C 9.41 g/m*3 17 C 11.3 km/h
1417 11-07-2020 22:00:00 16.9 C 9.49 g/m*3 16.9 C 0 km/h
1418 11-07-2020 22:05:00 16.8 C 9.44 g/m*3 16.8 C 1.6 km/h
1419 11-07-2020 22:10:00 16.7 C 9.52 g/m*3 16.7 C 1.6 km/h
1420 11-07-2020 22:15:00 16.6 C 9.61 g/m*3 16.6 C 3.2 km/h
1421 11-07-2020 22:20:00 16.4 C 9.63 g/m*3 16.4 C 0 km/h
1422 11-07-2020 22:25:00 16.2 C 9.65 g/m*3 16.2 C 0 km/h
1423 11-07-2020 22:30:00 16 C 9.54 g/m*3 16 C 0 km/h
1424 11-07-2020 22:35:00 15.8 C 9.42 g/m*3 15.8 C 8.1 km/h
1425 11-07-2020 22:40:00 15.9 C 9.48 g/m*3 15.9 C 6.4 km/h
Sensor: Nr:Datum:Temp:Abs-Feuchte:Windchill:Wind:
Aussen-T/F 1426 11-07-2020 22:45:00 15.9 C 9.62 g/m*3 15.9 C 0 km/h
1427 11-07-2020 22:50:00 15.9 C 9.62 g/m*3 15.9 C 0 km/h
1428 11-07-2020 22:55:00 15.9 C 9.62 g/m*3 15.9 C 0 km/h
1429 11-07-2020 23:00:00 15.8 C 9.56 g/m*3 15.8 C 3.2 km/h
1430 11-07-2020 23:05:00 15.6 C 9.58 g/m*3 15.6 C 3.2 km/h
1431 11-07-2020 23:10:00 15.4 C 9.46 g/m*3 15.4 C 4.8 km/h
1432 11-07-2020 23:15:00 15.2 C 9.48 g/m*3 15.2 C 3.2 km/h
1433 11-07-2020 23:20:00 15 C 9.49 g/m*3 15 C 4.8 km/h
1434 11-07-2020 23:25:00 14.8 C 9.37 g/m*3 14.8 C 4.8 km/h
1435 11-07-2020 23:30:00 14.6 C 9.39 g/m*3 14.6 C 3.2 km/h
1436 11-07-2020 23:35:00 14.4 C 9.27 g/m*3 14.4 C 1.6 km/h
1437 11-07-2020 23:40:00 14.3 C 9.34 g/m*3 14.3 C 3.2 km/h
1438 11-07-2020 23:45:00 14.2 C 9.28 g/m*3 14.2 C 4.8 km/h
1439 11-07-2020 23:50:00 14 C 9.29 g/m*3 14 C 4.8 km/h
1440 11-07-2020 23:55:00 13.8 C 9.29 g/m*3 13.8 C 4.8 km/h

Legende:
   Min
   Max


Maximal/Minimal-Werte vom 07.07.2020 - 11.07.2020

Sensor Min Max Avg
Temp
(Aussen-T/F)
8.5 °C
07-07-2020  06:20:00
28.6 °C
09-07-2020  16:25:00
17.76 °C
Abs-Feuchte
(Aussen-T/F)
7.15 g/m*3
11-07-2020  16:55:00
15.4 g/m*3
09-07-2020  13:05:00
11.11 g/m*3
Windchill
(Aussen-T/F)
8.45 C
07-07-2020  07:20:00
28.6 C
09-07-2020  16:25:00
17.75 C

Die Daten stammen von einer Davis Vantage Pro 2 Wetter-Station und werden unter Linux mit der Software wview2wettercgi und aufbereitet. Alle Angaben erfolgen ohne Gewähr für ihre Vollständigkeit oder Richtigkeit.
Kontakt: Rainer Krienke krienke@uni-koblenz.de . Meine Webseiten an der Uni Koblenz oder privat.
Version: $Revision: 0.78 $